
Distance (Route):
Temperature : 0°C
Humidity : 0%
Pressure : 0hPa| Receiver | Date | Latitude | Longitude | Direction | Speed | Altitude | Climb | Temperature | Humidity | Pressure | Voltage | Killtimer | Uptime | BKT | XDATA |
|---|---|---|---|---|---|---|---|---|---|---|---|---|---|---|---|
| RDZ2B | 2026-09-04 01:44:13 | 41.40781 | 8.79197 | 144° | 35km/h | 8120m | -5.7m/s | 0°C | 0% | 0hPa | 0V | 00:00:00 | 00:00:00 | 00:00:00 | |
| RDZ2B | 2026-09-04 01:43:46 | 41.41044 | 8.79017 | 147° | 49km/h | 8279m | -5.9m/s | 0°C | 0% | 0hPa | 0V | 00:00:00 | 00:00:00 | 00:00:00 | |
| RDZ2B | 2026-09-04 01:43:25 | 41.41289 | 8.78944 | 176° | 33km/h | 8401m | -5.9m/s | 0°C | 0% | 0hPa | 0V | 00:00:00 | 00:00:00 | 00:00:00 | |
| RDZ2B | 2026-09-04 01:43:03 | 41.41504 | 8.78893 | 161° | 35km/h | 8533m | -6.0m/s | 0°C | 0% | 0hPa | 0V | 00:00:00 | 00:00:00 | 00:00:00 | |
| RDZ2B | 2026-09-04 01:42:42 | 41.41730 | 8.78823 | 160° | 33km/h | 8660m | -5.9m/s | 0°C | 0% | 0hPa | 0V | 00:00:00 | 00:00:00 | 00:00:00 | |
| RDZ2B | 2026-09-04 01:42:21 | 41.41966 | 8.78735 | 185° | 46km/h | 8785m | -5.8m/s | 0°C | 0% | 0hPa | 0V | 00:00:00 | 00:00:00 | 00:00:00 | |
| RDZ2B | 2026-09-04 01:42:00 | 41.42168 | 8.78697 | 181° | 29km/h | 8911m | -6.1m/s | 0°C | 0% | 0hPa | 0V | 00:00:00 | 00:00:00 | 00:00:00 | |
| RDZ2B | 2026-09-04 01:41:40 | 41.42349 | 8.78629 | 164° | 26km/h | 9030m | -6.1m/s | 0°C | 0% | 0hPa | 0V | 00:00:00 | 00:00:00 | 00:00:00 | |
| RDZ2B | 2026-09-04 01:41:19 | 41.42539 | 8.78522 | 147° | 29km/h | 9156m | -6.0m/s | 0°C | 0% | 0hPa | 0V | 00:00:00 | 00:00:00 | 00:00:00 | |
| RDZ2B | 2026-09-04 01:40:50 | 41.42812 | 8.78357 | 150° | 47km/h | 9332m | -6.0m/s | 0°C | 0% | 0hPa | 0V | 00:00:00 | 00:00:00 | 00:00:00 | |
| RDZ2B | 2026-09-04 01:37:00 | 41.44979 | 8.77984 | 166° | 35km/h | 10800m | -6.8m/s | 0°C | 0% | 0hPa | 0V | 00:00:00 | 00:00:00 | 00:00:00 | |
| RDZ2B | 2026-09-04 01:36:38 | 41.45260 | 8.77890 | 179° | 62km/h | 10949m | -6.8m/s | 0°C | 0% | 0hPa | 0V | 00:00:00 | 00:00:00 | 00:00:00 | |
| RDZ2B | 2026-09-04 01:36:00 | 41.45761 | 8.77821 | 179° | 44km/h | 11207m | -6.9m/s | 0°C | 0% | 0hPa | 0V | 00:00:00 | 00:00:00 | 00:00:00 | |
| RDZ2B | 2026-09-04 01:35:38 | 41.46067 | 8.77791 | 173° | 42km/h | 11361m | -7.0m/s | 0°C | 0% | 0hPa | 0V | 00:00:00 | 00:00:00 | 00:00:00 | |
| RDZ2B | 2026-09-04 01:35:17 | 41.46365 | 8.77727 | 189° | 49km/h | 11507m | -6.9m/s | 0°C | 0% | 0hPa | 0V | 00:00:00 | 00:00:00 | 00:00:00 | |
| RDZBGO | 2026-09-04 01:34:57 | 41.46639 | 8.77717 | 182° | 42km/h | 11647m | -6.9m/s | 0°C | 0% | 0hPa | 0V | 00:00:00 | 00:00:00 | 00:00:00 | |
| RDZ2B | 2026-09-04 01:34:50 | 41.46729 | 8.77686 | 168° | 66km/h | 11696m | -7.0m/s | 0°C | 0% | 0hPa | 0V | 00:00:00 | 00:00:00 | 00:00:00 | |
| RDZBGO | 2026-09-04 01:34:36 | 41.46940 | 8.77685 | 180° | 44km/h | 11793m | -6.7m/s | 0°C | 0% | 0hPa | 0V | 00:00:00 | 00:00:00 | 00:00:00 | |
| RDZBGO | 2026-09-04 01:34:16 | 41.47221 | 8.77633 | 186° | 58km/h | 11932m | -7.0m/s | 0°C | 0% | 0hPa | 0V | 00:00:00 | 00:00:00 | 00:00:00 | |
| RDZ2B | 2026-09-04 01:34:14 | 41.47248 | 8.77637 | 186° | 49km/h | 11946m | -6.9m/s | 0°C | 0% | 0hPa | 0V | 00:00:00 | 00:00:00 | 00:00:00 | |
| RDZBGO | 2026-09-04 01:33:56 | 41.47503 | 8.77567 | 182° | 66km/h | 12072m | -6.9m/s | 0°C | 0% | 0hPa | 0V | 00:00:00 | 00:00:00 | 00:00:00 | |
| RDZ2B | 2026-09-04 01:33:53 | 41.47551 | 8.77570 | 187° | 58km/h | 12093m | -7.0m/s | 0°C | 0% | 0hPa | 0V | 00:00:00 | 00:00:00 | 00:00:00 | |
| RDZBGO | 2026-09-04 01:33:35 | 41.47775 | 8.77547 | 158° | 51km/h | 12219m | -7.0m/s | 0°C | 0% | 0hPa | 0V | 00:00:00 | 00:00:00 | 00:00:00 | |
| RDZ2B | 2026-09-04 01:33:32 | 41.47814 | 8.77527 | 162° | 58km/h | 12240m | -7.1m/s | 0°C | 0% | 0hPa | 0V | 00:00:00 | 00:00:00 | 00:00:00 | |
| RDZBGO | 2026-09-04 01:33:15 | 41.48040 | 8.77506 | 162° | 49km/h | 12361m | -7.3m/s | 0°C | 0% | 0hPa | 0V | 00:00:00 | 00:00:00 | 00:00:00 | |
| RDZ2B | 2026-09-04 01:32:59 | 41.48259 | 8.77516 | 165° | 46km/h | 12475m | -7.4m/s | 0°C | 0% | 0hPa | 0V | 00:00:00 | 00:00:00 | 00:00:00 | |
| RDZBGO | 2026-09-04 01:32:54 | 41.48333 | 8.77497 | 179° | 68km/h | 12511m | -6.9m/s | 0°C | 0% | 0hPa | 0V | 00:00:00 | 00:00:00 | 00:00:00 | |
| RDZ2B | 2026-09-04 01:32:37 | 41.48579 | 8.77497 | 186° | 71km/h | 12634m | -7.6m/s | 0°C | 0% | 0hPa | 0V | 00:00:00 | 00:00:00 | 00:00:00 | |
| RDZBGO | 2026-09-04 01:32:33 | 41.48637 | 8.77512 | 190° | 46km/h | 12664m | -7.4m/s | 0°C | 0% | 0hPa | 0V | 00:00:00 | 00:00:00 | 00:00:00 | |
| RDZ2B | 2026-09-04 01:32:16 | 41.48911 | 8.77505 | 195° | 71km/h | 12788m | -7.1m/s | 0°C | 0% | 0hPa | 0V | 00:00:00 | 00:00:00 | 00:00:00 | |
| RDZBGO | 2026-09-04 01:32:13 | 41.48963 | 8.77524 | 198° | 68km/h | 12809m | -7.2m/s | 0°C | 0% | 0hPa | 0V | 00:00:00 | 00:00:00 | 00:00:00 | |
| RDZ2B | 2026-09-04 01:31:56 | 41.49205 | 8.77560 | 195° | 46km/h | 12936m | -7.2m/s | 0°C | 0% | 0hPa | 0V | 00:00:00 | 00:00:00 | 00:00:00 | |
| RDZBGO | 2026-09-04 01:31:53 | 41.49237 | 8.77568 | 187° | 40km/h | 12958m | -7.2m/s | 0°C | 0% | 0hPa | 0V | 00:00:00 | 00:00:00 | 00:00:00 | |
| RDZ2B | 2026-09-04 01:31:36 | 41.49467 | 8.77563 | 196° | 47km/h | 13087m | -7.9m/s | 0°C | 0% | 0hPa | 0V | 00:00:00 | 00:00:00 | 00:00:00 | |
| RDZBGO | 2026-09-04 01:31:32 | 41.49514 | 8.77558 | 166° | 55km/h | 13118m | -7.4m/s | 0°C | 0% | 0hPa | 0V | 00:00:00 | 00:00:00 | 00:00:00 | |
| RDZ2B | 2026-09-04 01:31:15 | 41.49747 | 8.77574 | 171° | 47km/h | 13245m | -7.3m/s | 0°C | 0% | 0hPa | 0V | 00:00:00 | 00:00:00 | 00:00:00 | |
| RDZBGO | 2026-09-04 01:31:12 | 41.49786 | 8.77561 | 166° | 60km/h | 13268m | -7.3m/s | 0°C | 0% | 0hPa | 0V | 00:00:00 | 00:00:00 | 00:00:00 | |
| RDZ2B | 2026-09-04 01:30:54 | 41.50093 | 8.77538 | 186° | 49km/h | 13402m | -7.5m/s | 0°C | 0% | 0hPa | 0V | 00:00:00 | 00:00:00 | 00:00:00 | |
| RDZBGO | 2026-09-04 01:30:51 | 41.50131 | 8.77540 | 178° | 51km/h | 13425m | -7.6m/s | 0°C | 0% | 0hPa | 0V | 00:00:00 | 00:00:00 | 00:00:00 | |
| RDZ2B | 2026-09-04 01:30:32 | 41.50427 | 8.77512 | 165° | 69km/h | 13575m | -8.3m/s | 0°C | 0% | 0hPa | 0V | 00:00:00 | 00:00:00 | 00:00:00 | |
| RDZBGO | 2026-09-04 01:30:30 | 41.50465 | 8.77502 | 175° | 82km/h | 13592m | -8.0m/s | 0°C | 0% | 0hPa | 0V | 00:00:00 | 00:00:00 | 00:00:00 | |
| RDZBGO | 2026-09-04 01:30:10 | 41.50801 | 8.77503 | 196° | 68km/h | 13753m | -8.4m/s | 0°C | 0% | 0hPa | 0V | 00:00:00 | 00:00:00 | 00:00:00 | |
| RDZ2B | 2026-09-04 01:29:50 | 41.51055 | 8.77466 | 147° | 55km/h | 13916m | -7.7m/s | 0°C | 0% | 0hPa | 0V | 00:00:00 | 00:00:00 | 00:00:00 | |
| RDZBGO | 2026-09-04 01:29:49 | 41.51067 | 8.77456 | 147° | 55km/h | 13924m | -7.8m/s | 0°C | 0% | 0hPa | 0V | 00:00:00 | 00:00:00 | 00:00:00 | |
| RDZ2B | 2026-09-04 01:29:30 | 41.51317 | 8.77299 | 153° | 68km/h | 14082m | -8.6m/s | 0°C | 0% | 0hPa | 0V | 00:00:00 | 00:00:00 | 00:00:00 | |
| RDZBGO | 2026-09-04 01:29:28 | 41.51350 | 8.77282 | 166° | 69km/h | 14099m | -8.4m/s | 0°C | 0% | 0hPa | 0V | 00:00:00 | 00:00:00 | 00:00:00 | |
| RDZBGO | 2026-09-04 01:29:07 | 41.51570 | 8.77200 | 157° | 66km/h | 14274m | -8.4m/s | 0°C | 0% | 0hPa | 0V | 00:00:00 | 00:00:00 | 00:00:00 | |
| RDZ2B | 2026-09-04 01:28:58 | 41.51673 | 8.77154 | 136° | 46km/h | 14352m | -8.4m/s | 0°C | 0% | 0hPa | 0V | 00:00:00 | 00:00:00 | 00:00:00 | |
| RDZBGO | 2026-09-04 01:28:46 | 41.51821 | 8.77055 | 159° | 31km/h | 14455m | -8.4m/s | 0°C | 0% | 0hPa | 0V | 00:00:00 | 00:00:00 | 00:00:00 | |
| RDZBGO | 2026-09-04 01:28:26 | 41.52026 | 8.76879 | 137° | 40km/h | 14625m | -8.7m/s | 0°C | 0% | 0hPa | 0V | 00:00:00 | 00:00:00 | 00:00:00 | |
| RDZ2B | 2026-09-04 01:28:09 | 41.52239 | 8.76682 | 141° | 73km/h | 14777m | -9.2m/s | 0°C | 0% | 0hPa | 0V | 00:00:00 | 00:00:00 | 00:00:00 | |
| RDZBGO | 2026-09-04 01:28:06 | 41.52293 | 8.76641 | 160° | 86km/h | 14804m | -8.9m/s | 0°C | 0% | 0hPa | 0V | 00:00:00 | 00:00:00 | 00:00:00 | |
| RDZ2B | 2026-09-04 01:27:46 | 41.52576 | 8.76513 | 147° | 51km/h | 14985m | -8.9m/s | 0°C | 0% | 0hPa | 0V | 00:00:00 | 00:00:00 | 00:00:00 | |
| RDZBGO | 2026-09-04 01:27:25 | 41.52841 | 8.76418 | 176° | 58km/h | 15178m | -9.0m/s | 0°C | 0% | 0hPa | 0V | 00:00:00 | 00:00:00 | 00:00:00 | |
| RDZBGO | 2026-09-04 01:27:05 | 41.53077 | 8.76316 | 185° | 51km/h | 15362m | -9.2m/s | 0°C | 0% | 0hPa | 0V | 00:00:00 | 00:00:00 | 00:00:00 | |
| RDZBGO | 2026-09-04 01:26:44 | 41.53247 | 8.76222 | 108° | 29km/h | 15561m | -9.7m/s | 0°C | 0% | 0hPa | 0V | 00:00:00 | 00:00:00 | 00:00:00 | |
| RDZBGO | 2026-09-04 01:26:23 | 41.53396 | 8.75982 | 132° | 33km/h | 15766m | -9.6m/s | 0°C | 0% | 0hPa | 0V | 00:00:00 | 00:00:00 | 00:00:00 | |
| RDZBGO | 2026-09-04 01:26:03 | 41.53617 | 8.75728 | 136° | 77km/h | 15959m | -9.6m/s | 0°C | 0% | 0hPa | 0V | 00:00:00 | 00:00:00 | 00:00:00 | |
| RDZBGO | 2026-09-04 01:25:42 | 41.53880 | 8.75552 | 162° | 62km/h | 16163m | -10.3m/s | 0°C | 0% | 0hPa | 0V | 00:00:00 | 00:00:00 | 00:00:00 | |
| IW2NTF | 2026-09-04 01:25:38 | 41.53963 | 8.75513 | 146° | 51km/h | 16264m | -10.1m/s | 0°C | 0% | 0hPa | 0V | 00:00:00 | 00:00:00 | 00:00:00 | |
| RDZBGO | 2026-09-04 01:25:21 | 41.54052 | 8.75458 | 125° | 49km/h | 16377m | -10.4m/s | 0°C | 0% | 0hPa | 0V | 00:00:00 | 00:00:00 | 00:00:00 | |
| RDZBGO | 2026-09-04 01:25:00 | 41.54329 | 8.75242 | 175° | 60km/h | 16597m | -10.4m/s | 0°C | 0% | 0hPa | 0V | 00:00:00 | 00:00:00 | 00:00:00 | |
| RDZBGO | 2026-09-04 01:24:39 | 41.54556 | 8.75182 | 138° | 22km/h | 16819m | -10.9m/s | 0°C | 0% | 0hPa | 0V | 00:00:00 | 00:00:00 | 00:00:00 | |
| RDZ2B | 2026-09-04 01:24:27 | 41.54652 | 8.75098 | 117° | 35km/h | 16953m | -11.1m/s | 0°C | 0% | 0hPa | 0V | 00:00:00 | 00:00:00 | 00:00:00 | |
| IW2NTF | 2026-09-04 01:24:25 | 41.54708 | 8.75054 | 152° | 15km/h | 17033m | -11.6m/s | 0°C | 0% | 0hPa | 0V | 00:00:00 | 00:00:00 | 00:00:00 | |
| RDZ2B | 2026-09-04 01:23:46 | 41.54897 | 8.74807 | 159° | 38km/h | 17418m | -12.0m/s | 0°C | 0% | 0hPa | 0V | 00:00:00 | 00:00:00 | 00:00:00 | |
| RDZ2B | 2026-09-04 01:23:24 | 41.55003 | 8.74595 | 154° | 47km/h | 17678m | -12.1m/s | 0°C | 0% | 0hPa | 0V | 00:00:00 | 00:00:00 | 00:00:00 | |
| RDZ2B | 2026-09-04 01:23:02 | 41.55178 | 8.74407 | 169° | 58km/h | 17943m | -12.2m/s | 0°C | 0% | 0hPa | 0V | 00:00:00 | 00:00:00 | 00:00:00 | |
| RDZ2B | 2026-09-04 01:22:39 | 41.55363 | 8.74376 | 222° | 16km/h | 18231m | -13.2m/s | 0°C | 0% | 0hPa | 0V | 00:00:00 | 00:00:00 | 00:00:00 | |
| RDZ2B | 2026-09-04 01:22:18 | 41.55482 | 8.74257 | 154° | 53km/h | 18507m | -12.6m/s | 0°C | 0% | 0hPa | 0V | 00:00:00 | 00:00:00 | 00:00:00 | |
| RDZ2B | 2026-09-04 01:21:57 | 41.55609 | 8.74228 | 91° | 5km/h | 18788m | -13.4m/s | 0°C | 0% | 0hPa | 0V | 00:00:00 | 00:00:00 | 00:00:00 | |
| RDZ2B | 2026-09-04 01:21:37 | 41.55714 | 8.74177 | 50° | 7km/h | 19070m | -13.8m/s | 0°C | 0% | 0hPa | 0V | 00:00:00 | 00:00:00 | 00:00:00 | |
| RDZ2B | 2026-09-04 01:21:17 | 41.55781 | 8.74074 | 128° | 38km/h | 19351m | -14.9m/s | 0°C | 0% | 0hPa | 0V | 00:00:00 | 00:00:00 | 00:00:00 | |
| RDZ2B | 2026-09-04 01:20:56 | 41.55888 | 8.74029 | 162° | 26km/h | 19661m | -15.0m/s | 0°C | 0% | 0hPa | 0V | 00:00:00 | 00:00:00 | 00:00:00 | |
| RDZ2B | 2026-09-04 01:20:34 | 41.55857 | 8.74069 | 40° | 26km/h | 19988m | -15.0m/s | 0°C | 0% | 0hPa | 0V | 00:00:00 | 00:00:00 | 00:00:00 | |
| RDZ2B | 2026-09-04 01:20:08 | 41.55869 | 8.74027 | 148° | 31km/h | 20383m | -14.1m/s | 0°C | 0% | 0hPa | 0V | 00:00:00 | 00:00:00 | 00:00:00 | |
| RDZ2B | 2026-09-04 01:19:43 | 41.55944 | 8.74089 | 316° | 18km/h | 20782m | -16.6m/s | 0°C | 0% | 0hPa | 0V | 00:00:00 | 00:00:00 | 00:00:00 | |
| RDZ2B | 2026-09-04 01:19:23 | 41.55984 | 8.74144 | 143° | 18km/h | 21120m | -17.0m/s | 0°C | 0% | 0hPa | 0V | 00:00:00 | 00:00:00 | 00:00:00 | |
| RDZ2B | 2026-09-04 01:19:03 | 41.55995 | 8.74227 | 78° | 16km/h | 21465m | -17.6m/s | 0°C | 0% | 0hPa | 0V | 00:00:00 | 00:00:00 | 00:00:00 | |
| RDZ2B | 2026-09-04 01:18:40 | 41.56043 | 8.74277 | 1° | 7km/h | 21866m | -18.0m/s | 0°C | 0% | 0hPa | 0V | 00:00:00 | 00:00:00 | 00:00:00 | |
| RDZ2B | 2026-09-04 01:18:19 | 41.56027 | 8.74410 | 358° | 27km/h | 22250m | -18.8m/s | 0°C | 0% | 0hPa | 0V | 00:00:00 | 00:00:00 | 00:00:00 | |
| RDZ2B | 2026-09-04 01:17:55 | 41.56092 | 8.74372 | 242° | 27km/h | 22694m | -19.3m/s | 0°C | 0% | 0hPa | 0V | 00:00:00 | 00:00:00 | 00:00:00 | |
| RDZ2B | 2026-09-04 01:17:33 | 41.56186 | 8.74502 | 300° | 9km/h | 23133m | -19.5m/s | 0°C | 0% | 0hPa | 0V | 00:00:00 | 00:00:00 | 00:00:00 | |
| RDZ2B | 2026-09-04 01:17:12 | 41.56206 | 8.74596 | 61° | 13km/h | 23563m | -21.0m/s | 0°C | 0% | 0hPa | 0V | 00:00:00 | 00:00:00 | 00:00:00 | |
| IW2NTF | 2026-09-04 01:16:58 | 41.56226 | 8.74663 | 264° | 35km/h | 23924m | -21.3m/s | 0°C | 0% | 0hPa | 0V | 00:00:00 | 00:00:00 | 00:00:00 | |
| RDZ2B | 2026-09-04 01:16:52 | 41.56217 | 8.74686 | 359° | 13km/h | 23990m | -22.0m/s | 0°C | 0% | 0hPa | 0V | 00:00:00 | 00:00:00 | 00:00:00 | |
| RDZ2B | 2026-09-04 01:16:31 | 41.56189 | 8.74813 | 357° | 22km/h | 24455m | -22.4m/s | 0°C | 0% | 0hPa | 0V | 00:00:00 | 00:00:00 | 00:00:00 | |
| IW2NTF | 2026-09-04 01:16:18 | 41.56147 | 8.74878 | 277° | 22km/h | 24781m | -23.9m/s | 0°C | 0% | 0hPa | 0V | 00:00:00 | 00:00:00 | 00:00:00 | |
| RDZ2B | 2026-09-04 01:16:10 | 41.56112 | 8.74907 | 319° | 37km/h | 24948m | -24.0m/s | 0°C | 0% | 0hPa | 0V | 00:00:00 | 00:00:00 | 00:00:00 | |
| IW2NTF | 2026-09-04 01:15:58 | 41.56042 | 8.74909 | 63° | 27km/h | 25288m | -24m/s | 0°C | 0% | 0hPa | 0V | 00:00:00 | 00:00:00 | 00:00:00 | |
| RDZ2B | 2026-09-04 01:15:50 | 41.56050 | 8.74921 | 299° | 29km/h | 25425m | -22.9m/s | 0°C | 0% | 0hPa | 0V | 00:00:00 | 00:00:00 | 00:00:00 | |
| IW2NTF | 2026-09-04 01:15:35 | 41.55995 | 8.75099 | 284° | 47km/h | 25882m | -22.1m/s | 0°C | 0% | 0hPa | 0V | 00:00:00 | 00:00:00 | 00:00:00 | |
| RDZ2B | 2026-09-04 01:15:30 | 41.55995 | 8.75099 | 285° | 47km/h | 25883m | -22.1m/s | 0°C | 0% | 0hPa | 0V | 00:00:00 | 00:00:00 | 00:00:00 | |
| RDZ2B | 2026-09-04 01:15:04 | 41.55936 | 8.75267 | 36° | 20km/h | 26516m | -25.5m/s | 0°C | 0% | 0hPa | 0V | 00:00:00 | 00:00:00 | 00:00:00 | |
| IW2NTF | 2026-09-04 01:14:53 | 41.56016 | 8.75330 | 244° | 47km/h | 26968m | -27.7m/s | 0°C | 0% | 0hPa | 0V | 00:00:00 | 00:00:00 | 00:00:00 | |
| RDZ2B | 2026-09-04 01:14:43 | 41.56020 | 8.75360 | 187° | 11km/h | 27077m | -27.1m/s | 0°C | 0% | 0hPa | 0V | 00:00:00 | 00:00:00 | 00:00:00 | |
| IW2NTF | 2026-09-04 01:14:39 | 41.56042 | 8.75441 | 348° | 20km/h | 27327m | -29.1m/s | 0°C | 0% | 0hPa | 0V | 00:00:00 | 00:00:00 | 00:00:00 | |
| RDZ2B | 2026-09-04 01:14:22 | 41.56045 | 8.75453 | 61° | 15km/h | 27679m | -29.9m/s | 0°C | 0% | 0hPa | 0V | 00:00:00 | 00:00:00 | 00:00:00 | |
| IW2NTF | 2026-09-04 01:14:20 | 41.56066 | 8.75485 | 327° | 24km/h | 27911m | -28.3m/s | 0°C | 0% | 0hPa | 0V | 00:00:00 | 00:00:00 | 00:00:00 | |
| RDZ2B | 2026-09-04 01:13:58 | 41.56014 | 8.75541 | 72° | 18km/h | 28396m | -30.7m/s | 0°C | 0% | 0hPa | 0V | 00:00:00 | 00:00:00 | 00:00:00 | |
| RDZ2B | 2026-09-04 01:13:37 | 41.55990 | 8.75614 | 163° | 16km/h | 29036m | -32.1m/s | 0°C | 0% | 0hPa | 0V | 00:00:00 | 00:00:00 | 00:00:00 | |
| RDZ2B | 2026-09-04 01:13:16 | 41.55951 | 8.75743 | 333° | 40km/h | 29703m | -32.1m/s | 0°C | 0% | 0hPa | 0V | 00:00:00 | 00:00:00 | 00:00:00 | |
| IW2NTF | 2026-09-04 01:13:09 | 41.55978 | 8.75819 | 190° | 24km/h | 30142m | -35.4m/s | 0°C | 0% | 0hPa | 0V | 00:00:00 | 00:00:00 | 00:00:00 | |
| IW2NTF | 2026-09-04 01:12:58 | 41.55996 | 8.75845 | 334° | 20km/h | 30527m | -35m/s | 0°C | 0% | 0hPa | 0V | 00:00:00 | 00:00:00 | 00:00:00 | |
| RDZ2B | 2026-09-04 01:12:56 | 41.55995 | 8.75855 | 173° | 26km/h | 30388m | -35.2m/s | 0°C | 0% | 0hPa | 0V | 00:00:00 | 00:00:00 | 00:00:00 | |
| RDZ2B | 2026-09-04 01:12:35 | 41.56038 | 8.75936 | 227° | 40km/h | 31141m | -37.1m/s | 0°C | 0% | 0hPa | 0V | 00:00:00 | 00:00:00 | 00:00:00 | |
| RDZ2B | 2026-09-04 01:12:12 | 41.56042 | 8.76082 | 252° | 62km/h | 32008m | -39.7m/s | 0°C | 0% | 0hPa | 0V | 00:00:00 | 00:00:00 | 00:00:00 | |
| RDZ2B | 2026-09-04 01:11:51 | 41.56034 | 8.76420 | 295° | 18km/h | 32861m | -42.7m/s | 0°C | 0% | 0hPa | 0V | 00:00:00 | 00:00:00 | 00:00:00 | |
| RDZ2B | 2026-09-04 01:11:10 | 41.55926 | 8.76846 | 287° | 29km/h | 34754m | -46.4m/s | 0°C | 0% | 0hPa | 0V | 00:00:00 | 00:00:00 | 00:00:00 | |
| IW2NTF | 2026-09-04 01:10:26 | 41.55939 | 8.77289 | 261° | 27km/h | 35336m | 5.6m/s | 0°C | 0% | 0hPa | 0V | 00:00:00 | 00:00:00 | 00:00:00 | |
| IW2NTF | 2026-09-04 01:09:57 | 41.55919 | 8.77460 | 309° | 20km/h | 35178m | 5.9m/s | 0°C | 0% | 0hPa | 0V | 00:00:00 | 00:00:00 | 00:00:00 | |
| RDZ2B | 2026-09-04 01:07:18 | 41.55333 | 8.79114 | 280° | 38km/h | 34319m | 6.0m/s | 0°C | 0% | 0hPa | 0V | 00:00:00 | 00:00:00 | 00:00:00 | |
| RDZ2B | 2026-09-04 01:06:41 | 41.55314 | 8.79459 | 266° | 27km/h | 34105m | 5.7m/s | 0°C | 0% | 0hPa | 0V | 00:00:00 | 00:00:00 | 00:00:00 | |
| IW2NTF | 2026-09-04 01:06:21 | 41.55258 | 8.79633 | 297° | 29km/h | 33957m | 6.1m/s | 0°C | 0% | 0hPa | 0V | 00:00:00 | 00:00:00 | 00:00:00 | |
| RDZ2B | 2026-09-04 01:06:21 | 41.55276 | 8.79586 | 310° | 31km/h | 33988m | 6.1m/s | 0°C | 0% | 0hPa | 0V | 00:00:00 | 00:00:00 | 00:00:00 | |
| RDZ2B | 2026-09-04 01:05:27 | 41.54967 | 8.80077 | 294° | 26km/h | 33675m | 5.8m/s | 0°C | 0% | 0hPa | 0V | 00:00:00 | 00:00:00 | 00:00:00 | |
| RDZ2B | 2026-09-04 01:05:06 | 41.54895 | 8.80225 | 279° | 26km/h | 33555m | 5.6m/s | 0°C | 0% | 0hPa | 0V | 00:00:00 | 00:00:00 | 00:00:00 | |
| IW2NTF | 2026-09-04 01:04:47 | 41.54834 | 8.80352 | 275° | 9km/h | 33416m | 5.6m/s | 0°C | 0% | 0hPa | 0V | 00:00:00 | 00:00:00 | 00:00:00 | |
| RDZ2B | 2026-09-04 01:04:42 | 41.54834 | 8.80348 | 265° | 15km/h | 33422m | 5.3m/s | 0°C | 0% | 0hPa | 0V | 00:00:00 | 00:00:00 | 00:00:00 | |
| IW2NTF | 2026-09-04 01:04:29 | 41.54792 | 8.80422 | 328° | 27km/h | 33332m | 5.5m/s | 0°C | 0% | 0hPa | 0V | 00:00:00 | 00:00:00 | 00:00:00 | |
| RDZ2B | 2026-09-04 01:04:20 | 41.54770 | 8.80469 | 302° | 20km/h | 33298m | 5.9m/s | 0°C | 0% | 0hPa | 0V | 00:00:00 | 00:00:00 | 00:00:00 | |
| RDZ2B | 2026-09-04 01:03:52 | 41.54660 | 8.80663 | 300° | 37km/h | 33143m | 5.7m/s | 0°C | 0% | 0hPa | 0V | 00:00:00 | 00:00:00 | 00:00:00 | |
| RDZ2B | 2026-09-04 01:03:07 | 41.54571 | 8.80967 | 289° | 27km/h | 32891m | 4.6m/s | 0°C | 0% | 0hPa | 0V | 00:00:00 | 00:00:00 | 00:00:00 | |
| IW2NTF | 2026-09-04 01:02:56 | 41.54554 | 8.81036 | 278° | 27km/h | 32822m | 5.5m/s | 0°C | 0% | 0hPa | 0V | 00:00:00 | 00:00:00 | 00:00:00 | |
| RDZ2B | 2026-09-04 01:02:47 | 41.54549 | 8.81091 | 271° | 38km/h | 32774m | 4.2m/s | 0°C | 0% | 0hPa | 0V | 00:00:00 | 00:00:00 | 00:00:00 | |
| RDZ2B | 2026-09-04 01:02:24 | 41.54518 | 8.81302 | 274° | 31km/h | 32636m | 6.3m/s | 0°C | 0% | 0hPa | 0V | 00:00:00 | 00:00:00 | 00:00:00 | |
| RDZ2B | 2026-09-04 01:02:03 | 41.54514 | 8.81515 | 277° | 16km/h | 32509m | 6.7m/s | 0°C | 0% | 0hPa | 0V | 00:00:00 | 00:00:00 | 00:00:00 | |
| RDZ2B | 2026-09-04 01:01:43 | 41.54540 | 8.81692 | 268° | 16km/h | 32390m | 5.6m/s | 0°C | 0% | 0hPa | 0V | 00:00:00 | 00:00:00 | 00:00:00 | |
| RDZ2B | 2026-09-04 01:01:23 | 41.54548 | 8.81839 | 259° | 13km/h | 32273m | 5.5m/s | 0°C | 0% | 0hPa | 0V | 00:00:00 | 00:00:00 | 00:00:00 | |
| RDZ2B | 2026-09-04 01:01:01 | 41.54552 | 8.82014 | 277° | 16km/h | 32148m | 5.8m/s | 0°C | 0% | 0hPa | 0V | 00:00:00 | 00:00:00 | 00:00:00 | |
| RDZ2B | 2026-09-04 01:00:41 | 41.54584 | 8.82241 | 235° | 37km/h | 32033m | 5.4m/s | 0°C | 0% | 0hPa | 0V | 00:00:00 | 00:00:00 | 00:00:00 | |
| IW2NTF | 2026-09-04 01:00:33 | 41.54620 | 8.82363 | 230° | 49km/h | 31976m | 4.9m/s | 0°C | 0% | 0hPa | 0V | 00:00:00 | 00:00:00 | 00:00:00 | |
| RDZ2B | 2026-09-04 01:00:20 | 41.54676 | 8.82493 | 231° | 35km/h | 31910m | 6.9m/s | 0°C | 0% | 0hPa | 0V | 00:00:00 | 00:00:00 | 00:00:00 | |
| RDZ2B | 2026-09-04 00:59:55 | 41.54805 | 8.82710 | 217° | 27km/h | 31768m | 5.4m/s | 0°C | 0% | 0hPa | 0V | 00:00:00 | 00:00:00 | 00:00:00 | |
| RDZ2B | 2026-09-04 00:59:35 | 41.54871 | 8.82802 | 169° | 22km/h | 31650m | 5.6m/s | 0°C | 0% | 0hPa | 0V | 00:00:00 | 00:00:00 | 00:00:00 | |
| RDZ2B | 2026-09-04 00:59:14 | 41.54920 | 8.82912 | 250° | 24km/h | 31528m | 4.9m/s | 0°C | 0% | 0hPa | 0V | 00:00:00 | 00:00:00 | 00:00:00 | |
| RDZ2B | 2026-09-04 00:58:53 | 41.54992 | 8.83087 | 227° | 29km/h | 31405m | 7.2m/s | 0°C | 0% | 0hPa | 0V | 00:00:00 | 00:00:00 | 00:00:00 | |
| IW2NTF | 2026-09-04 00:58:31 | 41.55101 | 8.83308 | 233° | 27km/h | 31268m | 7.2m/s | 0°C | 0% | 0hPa | 0V | 00:00:00 | 00:00:00 | 00:00:00 | |
| RDZ2B | 2026-09-04 00:58:28 | 41.55111 | 8.83322 | 213° | 27km/h | 31254m | 6.5m/s | 0°C | 0% | 0hPa | 0V | 00:00:00 | 00:00:00 | 00:00:00 | |
| IW2NTF | 2026-09-04 00:58:11 | 41.55165 | 8.83453 | 233° | 22km/h | 31142m | 6.6m/s | 0°C | 0% | 0hPa | 0V | 00:00:00 | 00:00:00 | 00:00:00 | |
| RDZ2B | 2026-09-04 00:58:06 | 41.55168 | 8.83476 | 263° | 26km/h | 31125m | 4.9m/s | 0°C | 0% | 0hPa | 0V | 00:00:00 | 00:00:00 | 00:00:00 | |
| IW2NTF | 2026-09-04 00:57:36 | 41.55340 | 8.83648 | 215° | 26km/h | 30943m | 6.6m/s | 0°C | 0% | 0hPa | 0V | 00:00:00 | 00:00:00 | 00:00:00 | |
| RDZ2B | 2026-09-04 00:57:22 | 41.55411 | 8.83723 | 204° | 37km/h | 30866m | 5.2m/s | 0°C | 0% | 0hPa | 0V | 00:00:00 | 00:00:00 | 00:00:00 | |
| RDZ2B | 2026-09-04 00:57:02 | 41.55509 | 8.83804 | 292° | 16km/h | 30750m | 3.8m/s | 0°C | 0% | 0hPa | 0V | 00:00:00 | 00:00:00 | 00:00:00 | |
| RDZ2B | 2026-09-04 00:56:42 | 41.55585 | 8.83889 | 199° | 18km/h | 30637m | 4.2m/s | 0°C | 0% | 0hPa | 0V | 00:00:00 | 00:00:00 | 00:00:00 | |
| RDZ2B | 2026-09-04 00:56:21 | 41.55631 | 8.84002 | 266° | 24km/h | 30523m | 5.1m/s | 0°C | 0% | 0hPa | 0V | 00:00:00 | 00:00:00 | 00:00:00 | |
| IW2NTF | 2026-09-04 00:55:56 | 41.55695 | 8.84182 | 278° | 27km/h | 30358m | 3.8m/s | 0°C | 0% | 0hPa | 0V | 00:00:00 | 00:00:00 | 00:00:00 | |
| RDZ2B | 2026-09-04 00:55:53 | 41.55695 | 8.84166 | 249° | 15km/h | 30370m | 6.3m/s | 0°C | 0% | 0hPa | 0V | 00:00:00 | 00:00:00 | 00:00:00 | |
| RDZ2B | 2026-09-04 00:55:33 | 41.55744 | 8.84323 | 226° | 24km/h | 30261m | 6.8m/s | 0°C | 0% | 0hPa | 0V | 00:00:00 | 00:00:00 | 00:00:00 | |
| RDZ2B | 2026-09-04 00:55:12 | 41.55819 | 8.84425 | 237° | 13km/h | 30142m | 5.4m/s | 0°C | 0% | 0hPa | 0V | 00:00:00 | 00:00:00 | 00:00:00 | |
| RDZ2B | 2026-09-04 00:54:45 | 41.55909 | 8.84475 | 234° | 22km/h | 29992m | 6.7m/s | 0°C | 0% | 0hPa | 0V | 00:00:00 | 00:00:00 | 00:00:00 | |
| IW2NTF | 2026-09-04 00:54:26 | 41.55904 | 8.84540 | 296° | 9km/h | 29841m | 6.4m/s | 0°C | 0% | 0hPa | 0V | 00:00:00 | 00:00:00 | 00:00:00 | |
| RDZ2B | 2026-09-04 00:54:23 | 41.55914 | 8.84516 | 312° | 13km/h | 29864m | 6.4m/s | 0°C | 0% | 0hPa | 0V | 00:00:00 | 00:00:00 | 00:00:00 | |
| RDZ2B | 2026-09-04 00:54:00 | 41.55883 | 8.84624 | 276° | 13km/h | 29731m | 6.6m/s | 0°C | 0% | 0hPa | 0V | 00:00:00 | 00:00:00 | 00:00:00 | |
| IW2NTF | 2026-09-04 00:53:53 | 41.55891 | 8.84701 | 231° | 18km/h | 29661m | 6.6m/s | 0°C | 0% | 0hPa | 0V | 00:00:00 | 00:00:00 | 00:00:00 | |
| RDZ2B | 2026-09-04 00:53:39 | 41.55894 | 8.84756 | 290° | 31km/h | 29610m | 5.6m/s | 0°C | 0% | 0hPa | 0V | 00:00:00 | 00:00:00 | 00:00:00 | |
| RDZ2B | 2026-09-04 00:53:16 | 41.55892 | 8.84873 | 196° | 11km/h | 29475m | 4.7m/s | 0°C | 0% | 0hPa | 0V | 00:00:00 | 00:00:00 | 00:00:00 | |
| RDZ2B | 2026-09-04 00:52:54 | 41.55887 | 8.84934 | 257° | 4km/h | 29344m | 6.5m/s | 0°C | 0% | 0hPa | 0V | 00:00:00 | 00:00:00 | 00:00:00 | |
| IW2NTF | 2026-09-04 00:52:37 | 41.55887 | 8.84985 | 220° | 5km/h | 29207m | 6.8m/s | 0°C | 0% | 0hPa | 0V | 00:00:00 | 00:00:00 | 00:00:00 | |
| RDZ2B | 2026-09-04 00:52:32 | 41.55886 | 8.84981 | 271° | 16km/h | 29214m | 6.0m/s | 0°C | 0% | 0hPa | 0V | 00:00:00 | 00:00:00 | 00:00:00 | |
| IW2NTF | 2026-09-04 00:52:26 | 41.55903 | 8.85015 | 220° | 11km/h | 29149m | 4.4m/s | 0°C | 0% | 0hPa | 0V | 00:00:00 | 00:00:00 | 00:00:00 | |
| IW2NTF | 2026-09-04 00:52:13 | 41.55900 | 8.85072 | 234° | 9km/h | 29068m | 6.1m/s | 0°C | 0% | 0hPa | 0V | 00:00:00 | 00:00:00 | 00:00:00 | |
| RDZ2B | 2026-09-04 00:52:10 | 41.55902 | 8.85056 | 287° | 27km/h | 29086m | 5.7m/s | 0°C | 0% | 0hPa | 0V | 00:00:00 | 00:00:00 | 00:00:00 | |
| RDZ2B | 2026-09-04 00:51:49 | 41.55886 | 8.85118 | 90° | 5km/h | 28963m | 4.3m/s | 0°C | 0% | 0hPa | 0V | 00:00:00 | 00:00:00 | 00:00:00 | |
| IW2NTF | 2026-09-04 00:51:47 | 41.55886 | 8.85145 | 208° | 7km/h | 28921m | 4.5m/s | 0°C | 0% | 0hPa | 0V | 00:00:00 | 00:00:00 | 00:00:00 | |
| IW2NTF | 2026-09-04 00:51:13 | 41.55899 | 8.85300 | 293° | 27km/h | 28735m | 5.9m/s | 0°C | 0% | 0hPa | 0V | 00:00:00 | 00:00:00 | 00:00:00 | |
| RDZ2B | 2026-09-04 00:51:05 | 41.55895 | 8.85327 | 260° | 9km/h | 28713m | 5.1m/s | 0°C | 0% | 0hPa | 0V | 00:00:00 | 00:00:00 | 00:00:00 | |
| IW2NTF | 2026-09-04 00:51:00 | 41.55899 | 8.85369 | 180° | 20km/h | 28665m | 4.4m/s | 0°C | 0% | 0hPa | 0V | 00:00:00 | 00:00:00 | 00:00:00 | |
| RDZ2B | 2026-09-04 00:50:44 | 41.55898 | 8.85432 | 299° | 29km/h | 28601m | 4.5m/s | 0°C | 0% | 0hPa | 0V | 00:00:00 | 00:00:00 | 00:00:00 | |
| IW2NTF | 2026-09-04 00:50:38 | 41.55889 | 8.85475 | 81° | 0km/h | 28530m | 4.8m/s | 0°C | 0% | 0hPa | 0V | 00:00:00 | 00:00:00 | 00:00:00 | |
| RDZ2B | 2026-09-04 00:50:20 | 41.55855 | 8.85504 | 335° | 35km/h | 28467m | 4.4m/s | 0°C | 0% | 0hPa | 0V | 00:00:00 | 00:00:00 | 00:00:00 | |
| IW2NTF | 2026-09-04 00:50:09 | 41.55795 | 8.85519 | 12° | 16km/h | 28406m | 6m/s | 0°C | 0% | 0hPa | 0V | 00:00:00 | 00:00:00 | 00:00:00 | |
| IW2NTF | 2026-09-04 00:49:59 | 41.55691 | 8.85541 | 345° | 13km/h | 28317m | 4m/s | 0°C | 0% | 0hPa | 0V | 00:00:00 | 00:00:00 | 00:00:00 | |
| RDZ2B | 2026-09-04 00:49:59 | 41.55732 | 8.85527 | 344° | 27km/h | 28350m | 6.2m/s | 0°C | 0% | 0hPa | 0V | 00:00:00 | 00:00:00 | 00:00:00 | |
| IW2NTF | 2026-09-04 00:49:40 | 41.55569 | 8.85636 | 285° | 15km/h | 28205m | 5.6m/s | 0°C | 0% | 0hPa | 0V | 00:00:00 | 00:00:00 | 00:00:00 | |
| RDZ2B | 2026-09-04 00:49:34 | 41.55572 | 8.85630 | 316° | 27km/h | 28211m | 6.3m/s | 0°C | 0% | 0hPa | 0V | 00:00:00 | 00:00:00 | 00:00:00 | |
| IW2NTF | 2026-09-04 00:48:37 | 41.55501 | 8.86000 | 228° | 16km/h | 27879m | 6.5m/s | 0°C | 0% | 0hPa | 0V | 00:00:00 | 00:00:00 | 00:00:00 | |
| IW2NTF | 2026-09-04 00:48:26 | 41.55528 | 8.86030 | 229° | 9km/h | 27801m | 6.9m/s | 0°C | 0% | 0hPa | 0V | 00:00:00 | 00:00:00 | 00:00:00 | |
| IW2NTF | 2026-09-04 00:47:49 | 41.55535 | 8.86006 | 346° | 9km/h | 27595m | 6.4m/s | 0°C | 0% | 0hPa | 0V | 00:00:00 | 00:00:00 | 00:00:00 | |
| RDZ2B | 2026-09-04 00:47:18 | 41.55482 | 8.86072 | 314° | 22km/h | 27450m | 5.0m/s | 0°C | 0% | 0hPa | 0V | 00:00:00 | 00:00:00 | 00:00:00 | |
| RDZ2B | 2026-09-04 00:46:56 | 41.55453 | 8.86119 | 358° | 15km/h | 27327m | 3.3m/s | 0°C | 0% | 0hPa | 0V | 00:00:00 | 00:00:00 | 00:00:00 | |
| IW2NTF | 2026-09-04 00:46:46 | 41.55417 | 8.86209 | 296° | 27km/h | 27240m | 6.2m/s | 0°C | 0% | 0hPa | 0V | 00:00:00 | 00:00:00 | 00:00:00 | |
| RDZ2B | 2026-09-04 00:46:33 | 41.55409 | 8.86265 | 291° | 22km/h | 27195m | 6.7m/s | 0°C | 0% | 0hPa | 0V | 00:00:00 | 00:00:00 | 00:00:00 | |
| RDZ2B | 2026-09-04 00:46:05 | 41.55435 | 8.86459 | 238° | 38km/h | 27039m | 5.0m/s | 0°C | 0% | 0hPa | 0V | 00:00:00 | 00:00:00 | 00:00:00 | |
| IW2NTF | 2026-09-04 00:45:53 | 41.55523 | 8.86552 | 212° | 16km/h | 26941m | 6.4m/s | 0°C | 0% | 0hPa | 0V | 00:00:00 | 00:00:00 | 00:00:00 | |
| RDZ2B | 2026-09-04 00:45:40 | 41.55551 | 8.86578 | 192° | 18km/h | 26901m | 6.7m/s | 0°C | 0% | 0hPa | 0V | 00:00:00 | 00:00:00 | 00:00:00 | |
| IW2NTF | 2026-09-04 00:45:26 | 41.55604 | 8.86625 | 232° | 29km/h | 26789m | 4.5m/s | 0°C | 0% | 0hPa | 0V | 00:00:00 | 00:00:00 | 00:00:00 | |
| RDZ2B | 2026-09-04 00:45:11 | 41.55616 | 8.86651 | 220° | 20km/h | 26742m | 4.8m/s | 0°C | 0% | 0hPa | 0V | 00:00:00 | 00:00:00 | 00:00:00 | |
| RDZ2B | 2026-09-04 00:44:48 | 41.55597 | 8.86724 | 4° | 9km/h | 26615m | 5.7m/s | 0°C | 0% | 0hPa | 0V | 00:00:00 | 00:00:00 | 00:00:00 | |
| RDZ2B | 2026-09-04 00:44:13 | 41.55585 | 8.86832 | 310° | 5km/h | 26423m | 6.1m/s | 0°C | 0% | 0hPa | 0V | 00:00:00 | 00:00:00 | 00:00:00 | |
| RDZ2B | 2026-09-04 00:43:23 | 41.55647 | 8.86908 | 204° | 13km/h | 26161m | 4.8m/s | 0°C | 0% | 0hPa | 0V | 00:00:00 | 00:00:00 | 00:00:00 | |
| RDZ2B | 2026-09-04 00:43:01 | 41.55610 | 8.86939 | 62° | 7km/h | 26044m | 4.0m/s | 0°C | 0% | 0hPa | 0V | 00:00:00 | 00:00:00 | 00:00:00 | |
| RDZ2B | 2026-09-04 00:42:37 | 41.55493 | 8.87002 | 307° | 35km/h | 25916m | 4.6m/s | 0°C | 0% | 0hPa | 0V | 00:00:00 | 00:00:00 | 00:00:00 | |
| IW2NTF | 2026-09-04 00:42:34 | 41.55437 | 8.87047 | 320° | 37km/h | 25871m | 4.6m/s | 0°C | 0% | 0hPa | 0V | 00:00:00 | 00:00:00 | 00:00:00 | |
| RDZ2B | 2026-09-04 00:42:13 | 41.55334 | 8.87143 | 333° | 35km/h | 25793m | 5.9m/s | 0°C | 0% | 0hPa | 0V | 00:00:00 | 00:00:00 | 00:00:00 | |
| RDZ2B | 2026-09-04 00:41:50 | 41.55249 | 8.87284 | 316° | 11km/h | 25676m | 5.8m/s | 0°C | 0% | 0hPa | 0V | 00:00:00 | 00:00:00 | 00:00:00 | |
| RDZ2B | 2026-09-04 00:41:29 | 41.55222 | 8.87322 | 228° | 7km/h | 25569m | 5.3m/s | 0°C | 0% | 0hPa | 0V | 00:00:00 | 00:00:00 | 00:00:00 | |
| IW2NTF | 2026-09-04 00:41:13 | 41.55194 | 8.87308 | 17° | 26km/h | 25472m | 4.3m/s | 0°C | 0% | 0hPa | 0V | 00:00:00 | 00:00:00 | 00:00:00 | |
| RDZ2B | 2026-09-04 00:41:03 | 41.55183 | 8.87304 | 19° | 20km/h | 25436m | 5.2m/s | 0°C | 0% | 0hPa | 0V | 00:00:00 | 00:00:00 | 00:00:00 | |
| IW2NTF | 2026-09-04 00:40:47 | 41.55137 | 8.87289 | 46° | 5km/h | 25339m | 4.7m/s | 0°C | 0% | 0hPa | 0V | 00:00:00 | 00:00:00 | 00:00:00 | |
| RDZ2B | 2026-09-04 00:40:39 | 41.55119 | 8.87277 | 38° | 4km/h | 25314m | 5.4m/s | 0°C | 0% | 0hPa | 0V | 00:00:00 | 00:00:00 | 00:00:00 | |
| IW2NTF | 2026-09-04 00:40:33 | 41.55096 | 8.87277 | 14° | 22km/h | 25280m | 4.5m/s | 0°C | 0% | 0hPa | 0V | 00:00:00 | 00:00:00 | 00:00:00 | |
| RDZ2B | 2026-09-04 00:40:19 | 41.55064 | 8.87288 | 348° | 22km/h | 25215m | 5.2m/s | 0°C | 0% | 0hPa | 0V | 00:00:00 | 00:00:00 | 00:00:00 | |
| RDZ2B | 2026-09-04 00:39:59 | 41.54992 | 8.87341 | 297° | 7km/h | 25114m | 4.7m/s | 0°C | 0% | 0hPa | 0V | 00:00:00 | 00:00:00 | 00:00:00 | |
| RDZ2B | 2026-09-04 00:39:34 | 41.54880 | 8.87454 | 328° | 40km/h | 24986m | 4.1m/s | 0°C | 0% | 0hPa | 0V | 00:00:00 | 00:00:00 | 00:00:00 | |
| RDZ2B | 2026-09-04 00:39:13 | 41.54779 | 8.87598 | 293° | 24km/h | 24880m | 5.3m/s | 0°C | 0% | 0hPa | 0V | 00:00:00 | 00:00:00 | 00:00:00 | |
| RDZ2B | 2026-09-04 00:38:52 | 41.54719 | 8.87749 | 258° | 24km/h | 24769m | 5.6m/s | 0°C | 0% | 0hPa | 0V | 00:00:00 | 00:00:00 | 00:00:00 | |
| RDZ2B | 2026-09-04 00:38:30 | 41.54653 | 8.87914 | 276° | 16km/h | 24651m | 5.0m/s | 0°C | 0% | 0hPa | 0V | 00:00:00 | 00:00:00 | 00:00:00 | |
| IW2NTF | 2026-09-04 00:38:15 | 41.54597 | 8.88080 | 256° | 18km/h | 24536m | 4.7m/s | 0°C | 0% | 0hPa | 0V | 00:00:00 | 00:00:00 | 00:00:00 | |
| RDZ2B | 2026-09-04 00:38:08 | 41.54598 | 8.88086 | 271° | 20km/h | 24532m | 4.8m/s | 0°C | 0% | 0hPa | 0V | 00:00:00 | 00:00:00 | 00:00:00 | |
| IW2NTF | 2026-09-04 00:38:02 | 41.54579 | 8.88184 | 266° | 26km/h | 24461m | 5.2m/s | 0°C | 0% | 0hPa | 0V | 00:00:00 | 00:00:00 | 00:00:00 | |
| RDZ2B | 2026-09-04 00:37:47 | 41.54566 | 8.88255 | 264° | 31km/h | 24418m | 4.4m/s | 0°C | 0% | 0hPa | 0V | 00:00:00 | 00:00:00 | 00:00:00 | |
| RDZ2B | 2026-09-04 00:37:25 | 41.54535 | 8.88488 | 275° | 33km/h | 24297m | 6.4m/s | 0°C | 0% | 0hPa | 0V | 00:00:00 | 00:00:00 | 00:00:00 | |
| IW2NTF | 2026-09-04 00:37:14 | 41.54536 | 8.88608 | 256° | 29km/h | 24234m | 5.8m/s | 0°C | 0% | 0hPa | 0V | 00:00:00 | 00:00:00 | 00:00:00 | |
| RDZBGO | 2026-09-04 00:37:07 | 41.54540 | 8.88663 | 265° | 27km/h | 24203m | 5.6m/s | 0°C | 0% | 0hPa | 0V | 00:00:00 | 00:00:00 | 00:00:00 | |
| RDZ2B | 2026-09-04 00:37:05 | 41.54547 | 8.88681 | 234° | 31km/h | 24191m | 4.7m/s | 0°C | 0% | 0hPa | 0V | 00:00:00 | 00:00:00 | 00:00:00 | |
| RDZBGO | 2026-09-04 00:36:46 | 41.54584 | 8.88795 | 223° | 18km/h | 24091m | 5.8m/s | 0°C | 0% | 0hPa | 0V | 00:00:00 | 00:00:00 | 00:00:00 | |
| IW2NTF | 2026-09-04 00:36:45 | 41.54606 | 8.88820 | 205° | 29km/h | 24050m | 4.4m/s | 0°C | 0% | 0hPa | 0V | 00:00:00 | 00:00:00 | 00:00:00 | |
| RDZ2B | 2026-09-04 00:36:43 | 41.54597 | 8.88806 | 199° | 11km/h | 24076m | 5.7m/s | 0°C | 0% | 0hPa | 0V | 00:00:00 | 00:00:00 | 00:00:00 | |
| IW2NTF | 2026-09-04 00:36:34 | 41.54626 | 8.88864 | 302° | 15km/h | 24004m | 5.5m/s | 0°C | 0% | 0hPa | 0V | 00:00:00 | 00:00:00 | 00:00:00 | |
| RDZBGO | 2026-09-04 00:36:24 | 41.54632 | 8.88889 | 241° | 22km/h | 23980m | 4.5m/s | 0°C | 0% | 0hPa | 0V | 00:00:00 | 00:00:00 | 00:00:00 | |
| RDZ2B | 2026-09-04 00:36:23 | 41.54634 | 8.88895 | 262° | 16km/h | 23974m | 5.7m/s | 0°C | 0% | 0hPa | 0V | 00:00:00 | 00:00:00 | 00:00:00 | |
| RDZBGO | 2026-09-04 00:36:03 | 41.54656 | 8.88996 | 209° | 22km/h | 23876m | 3.8m/s | 0°C | 0% | 0hPa | 0V | 00:00:00 | 00:00:00 | 00:00:00 | |
| RDZ2B | 2026-09-04 00:36:02 | 41.54660 | 8.89000 | 234° | 20km/h | 23871m | 5.6m/s | 0°C | 0% | 0hPa | 0V | 00:00:00 | 00:00:00 | 00:00:00 | |
| RDZBGO | 2026-09-04 00:35:43 | 41.54712 | 8.89110 | 183° | 24km/h | 23776m | 4.4m/s | 0°C | 0% | 0hPa | 0V | 00:00:00 | 00:00:00 | 00:00:00 | |
| IW2NTF | 2026-09-04 00:35:41 | 41.54729 | 8.89135 | 192° | 18km/h | 23736m | 4.1m/s | 0°C | 0% | 0hPa | 0V | 00:00:00 | 00:00:00 | 00:00:00 | |
| RDZ2B | 2026-09-04 00:35:41 | 41.54719 | 8.89116 | 246° | 15km/h | 23766m | 5.8m/s | 0°C | 0% | 0hPa | 0V | 00:00:00 | 00:00:00 | 00:00:00 | |
| RDZBGO | 2026-09-04 00:35:22 | 41.54758 | 8.89156 | 212° | 9km/h | 23672m | 5.6m/s | 0°C | 0% | 0hPa | 0V | 00:00:00 | 00:00:00 | 00:00:00 | |
| RDZ2B | 2026-09-04 00:35:20 | 41.54766 | 8.89156 | 171° | 24km/h | 23662m | 3.2m/s | 0°C | 0% | 0hPa | 0V | 00:00:00 | 00:00:00 | 00:00:00 | |
| IW2NTF | 2026-09-04 00:35:11 | 41.54802 | 8.89150 | 201° | 15km/h | 23590m | 4.5m/s | 0°C | 0% | 0hPa | 0V | 00:00:00 | 00:00:00 | 00:00:00 | |
| RDZ2B | 2026-09-04 00:35:00 | 41.54806 | 8.89161 | 190° | 18km/h | 23563m | 4.9m/s | 0°C | 0% | 0hPa | 0V | 00:00:00 | 00:00:00 | 00:00:00 | |
| RDZBGO | 2026-09-04 00:34:59 | 41.54810 | 8.89162 | 207° | 15km/h | 23559m | 4.3m/s | 0°C | 0% | 0hPa | 0V | 00:00:00 | 00:00:00 | 00:00:00 | |
| RDZ2B | 2026-09-04 00:34:39 | 41.54823 | 8.89236 | 227° | 22km/h | 23459m | 4.6m/s | 0°C | 0% | 0hPa | 0V | 00:00:00 | 00:00:00 | 00:00:00 | |
| RDZ2B | 2026-09-04 00:34:19 | 41.54854 | 8.89347 | 225° | 31km/h | 23355m | 3.9m/s | 0°C | 0% | 0hPa | 0V | 00:00:00 | 00:00:00 | 00:00:00 | |
| RDZBGO | 2026-09-04 00:34:16 | 41.54858 | 8.89364 | 280° | 26km/h | 23339m | 4.3m/s | 0°C | 0% | 0hPa | 0V | 00:00:00 | 00:00:00 | 00:00:00 | |
| RDZ2B | 2026-09-04 00:33:56 | 41.54919 | 8.89514 | 238° | 27km/h | 23242m | 5.9m/s | 0°C | 0% | 0hPa | 0V | 00:00:00 | 00:00:00 | 00:00:00 | |
| RDZBGO | 2026-09-04 00:33:34 | 41.55019 | 8.89693 | 228° | 16km/h | 23132m | 4.6m/s | 0°C | 0% | 0hPa | 0V | 00:00:00 | 00:00:00 | 00:00:00 | |
| RDZ2B | 2026-09-04 00:33:14 | 41.55145 | 8.89805 | 202° | 27km/h | 23030m | 5.9m/s | 0°C | 0% | 0hPa | 0V | 00:00:00 | 00:00:00 | 00:00:00 | |
| IW2NTF | 2026-09-04 00:33:11 | 41.55207 | 8.89842 | 207° | 44km/h | 22979m | 5.5m/s | 0°C | 0% | 0hPa | 0V | 00:00:00 | 00:00:00 | 00:00:00 | |
| RDZBGO | 2026-09-04 00:33:10 | 41.55169 | 8.89821 | 208° | 46km/h | 23010m | 5.6m/s | 0°C | 0% | 0hPa | 0V | 00:00:00 | 00:00:00 | 00:00:00 | |
| RDZ2B | 2026-09-04 00:32:53 | 41.55263 | 8.89874 | 198° | 22km/h | 22923m | 6.0m/s | 0°C | 0% | 0hPa | 0V | 00:00:00 | 00:00:00 | 00:00:00 | |
| RDZBGO | 2026-09-04 00:32:48 | 41.55293 | 8.89887 | 191° | 11km/h | 22896m | 3.6m/s | 0°C | 0% | 0hPa | 0V | 00:00:00 | 00:00:00 | 00:00:00 | |
| IW2NTF | 2026-09-04 00:32:47 | 41.55329 | 8.89904 | 195° | 22km/h | 22860m | 6m/s | 0°C | 0% | 0hPa | 0V | 00:00:00 | 00:00:00 | 00:00:00 | |
| RDZ2B | 2026-09-04 00:32:32 | 41.55373 | 8.89911 | 182° | 29km/h | 22816m | 4.1m/s | 0°C | 0% | 0hPa | 0V | 00:00:00 | 00:00:00 | 00:00:00 | |
| IW2NTF | 2026-09-04 00:32:27 | 41.55423 | 8.89916 | 219° | 4km/h | 22761m | 4.6m/s | 0°C | 0% | 0hPa | 0V | 00:00:00 | 00:00:00 | 00:00:00 | |
| RDZBGO | 2026-09-04 00:32:27 | 41.55394 | 8.89921 | 195° | 16km/h | 22793m | 4.9m/s | 0°C | 0% | 0hPa | 0V | 00:00:00 | 00:00:00 | 00:00:00 | |
| RDZ2B | 2026-09-04 00:32:12 | 41.55458 | 8.89909 | 170° | 26km/h | 22716m | 4.3m/s | 0°C | 0% | 0hPa | 0V | 00:00:00 | 00:00:00 | 00:00:00 | |
| RDZBGO | 2026-09-04 00:32:03 | 41.55488 | 8.89897 | 146° | 15km/h | 22673m | 5.2m/s | 0°C | 0% | 0hPa | 0V | 00:00:00 | 00:00:00 | 00:00:00 | |
| IW2NTF | 2026-09-04 00:32:01 | 41.55498 | 8.89884 | 148° | 16km/h | 22637m | 4.9m/s | 0°C | 0% | 0hPa | 0V | 00:00:00 | 00:00:00 | 00:00:00 | |
| RDZ2B | 2026-09-04 00:31:51 | 41.55502 | 8.89875 | 156° | 24km/h | 22612m | 5.3m/s | 0°C | 0% | 0hPa | 0V | 00:00:00 | 00:00:00 | 00:00:00 | |
| RDZBGO | 2026-09-04 00:31:42 | 41.55517 | 8.89860 | 171° | 5km/h | 22569m | 5.2m/s | 0°C | 0% | 0hPa | 0V | 00:00:00 | 00:00:00 | 00:00:00 | |
| RDZ2B | 2026-09-04 00:31:30 | 41.55515 | 8.89865 | 193° | 9km/h | 22509m | 4.2m/s | 0°C | 0% | 0hPa | 0V | 00:00:00 | 00:00:00 | 00:00:00 | |
| RDZBGO | 2026-09-04 00:31:21 | 41.55505 | 8.89855 | 14° | 20km/h | 22464m | 4.6m/s | 0°C | 0% | 0hPa | 0V | 00:00:00 | 00:00:00 | 00:00:00 | |
| RDZ2B | 2026-09-04 00:31:10 | 41.55499 | 8.89849 | 1° | 2km/h | 22410m | 4.8m/s | 0°C | 0% | 0hPa | 0V | 00:00:00 | 00:00:00 | 00:00:00 | |
| IW2NTF | 2026-09-04 00:31:05 | 41.55489 | 8.89843 | 30° | 11km/h | 22365m | 3.7m/s | 0°C | 0% | 0hPa | 0V | 00:00:00 | 00:00:00 | 00:00:00 | |
| RDZBGO | 2026-09-04 00:30:58 | 41.55492 | 8.89847 | 227° | 15km/h | 22351m | 4.0m/s | 0°C | 0% | 0hPa | 0V | 00:00:00 | 00:00:00 | 00:00:00 | |
| IW2NTF | 2026-09-04 00:30:33 | 41.55459 | 8.89912 | 279° | 26km/h | 22222m | 3.6m/s | 0°C | 0% | 0hPa | 0V | 00:00:00 | 00:00:00 | 00:00:00 | |
| RDZ2B | 2026-09-04 00:30:29 | 41.55450 | 8.89923 | 346° | 18km/h | 22208m | 4.1m/s | 0°C | 0% | 0hPa | 0V | 00:00:00 | 00:00:00 | 00:00:00 | |
| RDZ2B | 2026-09-04 00:30:08 | 41.55405 | 8.90047 | 331° | 16km/h | 22110m | 4.4m/s | 0°C | 0% | 0hPa | 0V | 00:00:00 | 00:00:00 | 00:00:00 | |
| IW2NTF | 2026-09-04 00:29:52 | 41.55387 | 8.90174 | 270° | 29km/h | 22028m | 3.9m/s | 0°C | 0% | 0hPa | 0V | 00:00:00 | 00:00:00 | 00:00:00 | |
| RDZ2B | 2026-09-04 00:29:34 | 41.55404 | 8.90290 | 223° | 16km/h | 21944m | 4.0m/s | 0°C | 0% | 0hPa | 0V | 00:00:00 | 00:00:00 | 00:00:00 | |
| IW2NTF | 2026-09-04 00:29:33 | 41.55423 | 8.90340 | 213° | 11km/h | 21905m | 4m/s | 0°C | 0% | 0hPa | 0V | 00:00:00 | 00:00:00 | 00:00:00 | |
| RDZ2B | 2026-09-04 00:29:14 | 41.55453 | 8.90400 | 144° | 5km/h | 21846m | 4.2m/s | 0°C | 0% | 0hPa | 0V | 00:00:00 | 00:00:00 | 00:00:00 | |
| RDZ2B | 2026-09-04 00:27:52 | 41.55601 | 8.90392 | 256° | 5km/h | 21447m | 3.6m/s | 0°C | 0% | 0hPa | 0V | 00:00:00 | 00:00:00 | 00:00:00 | |
| RDZ2B | 2026-09-04 00:27:31 | 41.55585 | 8.90402 | 29° | 13km/h | 21344m | 4.4m/s | 0°C | 0% | 0hPa | 0V | 00:00:00 | 00:00:00 | 00:00:00 | |
| IW2NTF | 2026-09-04 00:27:24 | 41.55578 | 8.90421 | 310° | 13km/h | 21302m | 5.1m/s | 0°C | 0% | 0hPa | 0V | 00:00:00 | 00:00:00 | 00:00:00 | |
| RDZ2B | 2026-09-04 00:27:10 | 41.55575 | 8.90475 | 274° | 7km/h | 21244m | 3.8m/s | 0°C | 0% | 0hPa | 0V | 00:00:00 | 00:00:00 | 00:00:00 | |
| RDZ2B | 2026-09-04 00:26:44 | 41.55625 | 8.90584 | 174° | 9km/h | 21118m | 4.3m/s | 0°C | 0% | 0hPa | 0V | 00:00:00 | 00:00:00 | 00:00:00 | |
| RDZ2B | 2026-09-04 00:26:04 | 41.55689 | 8.90630 | 205° | 18km/h | 20926m | 4.7m/s | 0°C | 0% | 0hPa | 0V | 00:00:00 | 00:00:00 | 00:00:00 | |
| RDZ2B | 2026-09-04 00:25:36 | 41.55759 | 8.90689 | 220° | 18km/h | 20797m | 4.7m/s | 0°C | 0% | 0hPa | 0V | 00:00:00 | 00:00:00 | 00:00:00 | |
| RDZ2B | 2026-09-04 00:25:12 | 41.55774 | 8.90732 | 286° | 11km/h | 20685m | 5.1m/s | 0°C | 0% | 0hPa | 0V | 00:00:00 | 00:00:00 | 00:00:00 | |
| RDZ2B | 2026-09-04 00:24:52 | 41.55792 | 8.90800 | 218° | 13km/h | 20588m | 4.9m/s | 0°C | 0% | 0hPa | 0V | 00:00:00 | 00:00:00 | 00:00:00 | |
| RDZ2B | 2026-09-04 00:24:31 | 41.55856 | 8.90862 | 207° | 29km/h | 20494m | 5.1m/s | 0°C | 0% | 0hPa | 0V | 00:00:00 | 00:00:00 | 00:00:00 | |
| RDZBGO | 2026-09-04 00:24:12 | 41.55922 | 8.90908 | 217° | 27km/h | 20403m | 4.5m/s | 0°C | 0% | 0hPa | 0V | 00:00:00 | 00:00:00 | 00:00:00 | |
| RDZ2B | 2026-09-04 00:24:09 | 41.55933 | 8.90912 | 129° | 5km/h | 20388m | 4.8m/s | 0°C | 0% | 0hPa | 0V | 00:00:00 | 00:00:00 | 00:00:00 | |
| RDZBGO | 2026-09-04 00:23:48 | 41.55978 | 8.90923 | 209° | 5km/h | 20293m | 5.1m/s | 0°C | 0% | 0hPa | 0V | 00:00:00 | 00:00:00 | 00:00:00 | |
| RDZ2B | 2026-09-04 00:23:45 | 41.55986 | 8.90934 | 0° | 0km/h | 20278m | 6.3m/s | 0°C | 0% | 0hPa | 0V | 00:00:00 | 00:00:00 | 00:00:00 | |
| RDZBGO | 2026-09-04 00:23:27 | 41.56005 | 8.90975 | 234° | 15km/h | 20191m | 4.1m/s | 0°C | 0% | 0hPa | 0V | 00:00:00 | 00:00:00 | 00:00:00 | |
| RDZ2B | 2026-09-04 00:23:24 | 41.56006 | 8.90973 | 183° | 4km/h | 20178m | 4.1m/s | 0°C | 0% | 0hPa | 0V | 00:00:00 | 00:00:00 | 00:00:00 | |
| IW2NTF | 2026-09-04 00:23:11 | 41.56046 | 8.90972 | 71° | 9km/h | 20094m | 4m/s | 0°C | 0% | 0hPa | 0V | 00:00:00 | 00:00:00 | 00:00:00 | |
| RDZBGO | 2026-09-04 00:23:00 | 41.56053 | 8.90969 | 36° | 7km/h | 20066m | 3.8m/s | 0°C | 0% | 0hPa | 0V | 00:00:00 | 00:00:00 | 00:00:00 | |
| RDZ2B | 2026-09-04 00:22:41 | 41.56066 | 8.90968 | 344° | 2km/h | 19978m | 4.8m/s | 0°C | 0% | 0hPa | 0V | 00:00:00 | 00:00:00 | 00:00:00 | |
| RDZBGO | 2026-09-04 00:22:36 | 41.56067 | 8.90978 | 25° | 11km/h | 19954m | 4.3m/s | 0°C | 0% | 0hPa | 0V | 00:00:00 | 00:00:00 | 00:00:00 | |
| RDZ2B | 2026-09-04 00:22:20 | 41.56065 | 8.91013 | 345° | 11km/h | 19878m | 5.4m/s | 0°C | 0% | 0hPa | 0V | 00:00:00 | 00:00:00 | 00:00:00 | |
| RDZBGO | 2026-09-04 00:22:14 | 41.56064 | 8.91030 | 321° | 11km/h | 19852m | 5.4m/s | 0°C | 0% | 0hPa | 0V | 00:00:00 | 00:00:00 | 00:00:00 | |
| RDZ2B | 2026-09-04 00:22:00 | 41.56064 | 8.91070 | 322° | 5km/h | 19788m | 3.7m/s | 0°C | 0% | 0hPa | 0V | 00:00:00 | 00:00:00 | 00:00:00 | |
| IW2NTF | 2026-09-04 00:21:59 | 41.56075 | 8.91087 | 277° | 7km/h | 19759m | 4.2m/s | 0°C | 0% | 0hPa | 0V | 00:00:00 | 00:00:00 | 00:00:00 | |
| RDZBGO | 2026-09-04 00:21:54 | 41.56075 | 8.91087 | 279° | 7km/h | 19760m | 4.2m/s | 0°C | 0% | 0hPa | 0V | 00:00:00 | 00:00:00 | 00:00:00 | |
| RDZ2B | 2026-09-04 00:21:39 | 41.56122 | 8.91117 | 195° | 22km/h | 19691m | 4.6m/s | 0°C | 0% | 0hPa | 0V | 00:00:00 | 00:00:00 | 00:00:00 | |
| IW2NTF | 2026-09-04 00:21:33 | 41.56175 | 8.91115 | 164° | 16km/h | 19641m | 4.5m/s | 0°C | 0% | 0hPa | 0V | 00:00:00 | 00:00:00 | 00:00:00 | |
| RDZBGO | 2026-09-04 00:21:33 | 41.56150 | 8.91117 | 188° | 29km/h | 19664m | 5.7m/s | 0°C | 0% | 0hPa | 0V | 00:00:00 | 00:00:00 | 00:00:00 | |
| RDZ2B | 2026-09-04 00:21:19 | 41.56224 | 8.91110 | 173° | 33km/h | 19603m | 4.3m/s | 0°C | 0% | 0hPa | 0V | 00:00:00 | 00:00:00 | 00:00:00 | |
| RDZBGO | 2026-09-04 00:21:13 | 41.56257 | 8.91095 | 193° | 24km/h | 19577m | 5.4m/s | 0°C | 0% | 0hPa | 0V | 00:00:00 | 00:00:00 | 00:00:00 | |
| RDZ2B | 2026-09-04 00:20:58 | 41.56342 | 8.91044 | 157° | 31km/h | 19510m | 4.5m/s | 0°C | 0% | 0hPa | 0V | 00:00:00 | 00:00:00 | 00:00:00 | |
| RDZBGO | 2026-09-04 00:20:50 | 41.56385 | 8.90996 | 127° | 29km/h | 19473m | 3.8m/s | 0°C | 0% | 0hPa | 0V | 00:00:00 | 00:00:00 | 00:00:00 | |
| RDZ2B | 2026-09-04 00:20:38 | 41.56448 | 8.90928 | 126° | 29km/h | 19420m | 3.5m/s | 0°C | 0% | 0hPa | 0V | 00:00:00 | 00:00:00 | 00:00:00 | |
| RDZBGO | 2026-09-04 00:20:23 | 41.56513 | 8.90833 | 136° | 24km/h | 19354m | 5.1m/s | 0°C | 0% | 0hPa | 0V | 00:00:00 | 00:00:00 | 00:00:00 | |
| RDZ2B | 2026-09-04 00:20:18 | 41.56533 | 8.90807 | 124° | 35km/h | 19331m | 3.3m/s | 0°C | 0% | 0hPa | 0V | 00:00:00 | 00:00:00 | 00:00:00 | |
| RDZBGO | 2026-09-04 00:20:00 | 41.56588 | 8.90703 | 119° | 20km/h | 19250m | 4.6m/s | 0°C | 0% | 0hPa | 0V | 00:00:00 | 00:00:00 | 00:00:00 | |
| RDZ2B | 2026-09-04 00:19:53 | 41.56607 | 8.90664 | 108° | 24km/h | 19218m | 4.7m/s | 0°C | 0% | 0hPa | 0V | 00:00:00 | 00:00:00 | 00:00:00 | |
| RDZBGO | 2026-09-04 00:19:36 | 41.56642 | 8.90599 | 120° | 7km/h | 19139m | 5.2m/s | 0°C | 0% | 0hPa | 0V | 00:00:00 | 00:00:00 | 00:00:00 | |
| RDZ2B | 2026-09-04 00:19:29 | 41.56656 | 8.90580 | 131° | 11km/h | 19108m | 5.2m/s | 0°C | 0% | 0hPa | 0V | 00:00:00 | 00:00:00 | 00:00:00 | |
| RDZBGO | 2026-09-04 00:19:13 | 41.56721 | 8.90563 | 199° | 15km/h | 19034m | 4.7m/s | 0°C | 0% | 0hPa | 0V | 00:00:00 | 00:00:00 | 00:00:00 | |
| RDZ2B | 2026-09-04 00:19:08 | 41.56747 | 8.90566 | 170° | 24km/h | 19011m | 4.6m/s | 0°C | 0% | 0hPa | 0V | 00:00:00 | 00:00:00 | 00:00:00 | |
| RDZBGO | 2026-09-04 00:18:53 | 41.56863 | 8.90558 | 189° | 33km/h | 18941m | 3.7m/s | 0°C | 0% | 0hPa | 0V | 00:00:00 | 00:00:00 | 00:00:00 | |
| RDZ2B | 2026-09-04 00:18:46 | 41.56915 | 8.90549 | 166° | 31km/h | 18908m | 5.2m/s | 0°C | 0% | 0hPa | 0V | 00:00:00 | 00:00:00 | 00:00:00 | |
| RDZBGO | 2026-09-04 00:18:30 | 41.57025 | 8.90512 | 197° | 38km/h | 18835m | 4.5m/s | 0°C | 0% | 0hPa | 0V | 00:00:00 | 00:00:00 | 00:00:00 | |
| RDZ2B | 2026-09-04 00:18:25 | 41.57055 | 8.90497 | 144° | 31km/h | 18813m | 5.8m/s | 0°C | 0% | 0hPa | 0V | 00:00:00 | 00:00:00 | 00:00:00 | |
| RDZBGO | 2026-09-04 00:18:08 | 41.57149 | 8.90477 | 152° | 26km/h | 18738m | 4.8m/s | 0°C | 0% | 0hPa | 0V | 00:00:00 | 00:00:00 | 00:00:00 | |
| RDZ2B | 2026-09-04 00:17:58 | 41.57209 | 8.90480 | 199° | 29km/h | 18692m | 4.1m/s | 0°C | 0% | 0hPa | 0V | 00:00:00 | 00:00:00 | 00:00:00 | |
| RDZBGO | 2026-09-04 00:17:47 | 41.57282 | 8.90471 | 179° | 29km/h | 18642m | 5.2m/s | 0°C | 0% | 0hPa | 0V | 00:00:00 | 00:00:00 | 00:00:00 | |
| RDZ2B | 2026-09-04 00:17:38 | 41.57337 | 8.90457 | 146° | 26km/h | 18601m | 4.6m/s | 0°C | 0% | 0hPa | 0V | 00:00:00 | 00:00:00 | 00:00:00 | |
| RDZBGO | 2026-09-04 00:17:27 | 41.57402 | 8.90422 | 172° | 20km/h | 18554m | 3.3m/s | 0°C | 0% | 0hPa | 0V | 00:00:00 | 00:00:00 | 00:00:00 | |
| RDZBGO | 2026-09-04 00:17:05 | 41.57516 | 8.90290 | 118° | 35km/h | 18457m | 3.4m/s | 0°C | 0% | 0hPa | 0V | 00:00:00 | 00:00:00 | 00:00:00 | |
| RDZ2B | 2026-09-04 00:16:55 | 41.57578 | 8.90225 | 148° | 31km/h | 18414m | 4.8m/s | 0°C | 0% | 0hPa | 0V | 00:00:00 | 00:00:00 | 00:00:00 | |
| RDZBGO | 2026-09-04 00:16:45 | 41.57636 | 8.90172 | 155° | 33km/h | 18372m | 5.4m/s | 0°C | 0% | 0hPa | 0V | 00:00:00 | 00:00:00 | 00:00:00 | |
| RDZ2B | 2026-09-04 00:16:35 | 41.57704 | 8.90140 | 175° | 29km/h | 18331m | 3.6m/s | 0°C | 0% | 0hPa | 0V | 00:00:00 | 00:00:00 | 00:00:00 | |
| RDZBGO | 2026-09-04 00:16:24 | 41.57779 | 8.90120 | 182° | 40km/h | 18284m | 2.8m/s | 0°C | 0% | 0hPa | 0V | 00:00:00 | 00:00:00 | 00:00:00 | |
| RDZ2B | 2026-09-04 00:16:15 | 41.57845 | 8.90101 | 156° | 33km/h | 18245m | 3.9m/s | 0°C | 0% | 0hPa | 0V | 00:00:00 | 00:00:00 | 00:00:00 | |
| RDZBGO | 2026-09-04 00:16:03 | 41.57951 | 8.90063 | 164° | 35km/h | 18194m | 4.2m/s | 0°C | 0% | 0hPa | 0V | 00:00:00 | 00:00:00 | 00:00:00 | |
| RDZ2B | 2026-09-04 00:15:55 | 41.58026 | 8.90031 | 169° | 49km/h | 18162m | 4.3m/s | 0°C | 0% | 0hPa | 0V | 00:00:00 | 00:00:00 | 00:00:00 | |
| RDZBGO | 2026-09-04 00:15:43 | 41.58140 | 8.89987 | 193° | 49km/h | 18110m | 4.7m/s | 0°C | 0% | 0hPa | 0V | 00:00:00 | 00:00:00 | 00:00:00 | |
| RDZ2B | 2026-09-04 00:15:34 | 41.58224 | 8.89943 | 139° | 40km/h | 18072m | 4.7m/s | 0°C | 0% | 0hPa | 0V | 00:00:00 | 00:00:00 | 00:00:00 | |
| RDZBGO | 2026-09-04 00:15:22 | 41.58327 | 8.89861 | 133° | 40km/h | 18022m | 3.0m/s | 0°C | 0% | 0hPa | 0V | 00:00:00 | 00:00:00 | 00:00:00 | |
| RDZ2B | 2026-09-04 00:15:14 | 41.58389 | 8.89799 | 147° | 44km/h | 17988m | 4.5m/s | 0°C | 0% | 0hPa | 0V | 00:00:00 | 00:00:00 | 00:00:00 | |
| RDZBGO | 2026-09-04 00:15:01 | 41.58486 | 8.89682 | 148° | 46km/h | 17932m | 3.2m/s | 0°C | 0% | 0hPa | 0V | 00:00:00 | 00:00:00 | 00:00:00 | |
| RDZ2B | 2026-09-04 00:14:53 | 41.58542 | 8.89596 | 116° | 47km/h | 17897m | 4.6m/s | 0°C | 0% | 0hPa | 0V | 00:00:00 | 00:00:00 | 00:00:00 | |
| RDZBGO | 2026-09-04 00:14:41 | 41.58623 | 8.89451 | 115° | 46km/h | 17846m | 4.6m/s | 0°C | 0% | 0hPa | 0V | 00:00:00 | 00:00:00 | 00:00:00 | |
| RDZ2B | 2026-09-04 00:14:33 | 41.58666 | 8.89347 | 117° | 46km/h | 17811m | 4.8m/s | 0°C | 0% | 0hPa | 0V | 00:00:00 | 00:00:00 | 00:00:00 | |
| RDZBGO | 2026-09-04 00:14:21 | 41.58718 | 8.89209 | 127° | 33km/h | 17758m | 4.5m/s | 0°C | 0% | 0hPa | 0V | 00:00:00 | 00:00:00 | 00:00:00 | |
| RDZ2B | 2026-09-04 00:14:11 | 41.58753 | 8.89100 | 100° | 46km/h | 17716m | 4.0m/s | 0°C | 0% | 0hPa | 0V | 00:00:00 | 00:00:00 | 00:00:00 | |
| RDZBGO | 2026-09-04 00:14:00 | 41.58794 | 8.88988 | 112° | 37km/h | 17670m | 5.2m/s | 0°C | 0% | 0hPa | 0V | 00:00:00 | 00:00:00 | 00:00:00 | |
| RDZ2B | 2026-09-04 00:13:51 | 41.58826 | 8.88894 | 108° | 44km/h | 17631m | 3.7m/s | 0°C | 0% | 0hPa | 0V | 00:00:00 | 00:00:00 | 00:00:00 | |
| RDZBGO | 2026-09-04 00:13:39 | 41.58862 | 8.88772 | 109° | 33km/h | 17580m | 5.2m/s | 0°C | 0% | 0hPa | 0V | 00:00:00 | 00:00:00 | 00:00:00 | |
| RDZ2B | 2026-09-04 00:13:30 | 41.58888 | 8.88676 | 115° | 31km/h | 17541m | 5.3m/s | 0°C | 0% | 0hPa | 0V | 00:00:00 | 00:00:00 | 00:00:00 | |
| RDZBGO | 2026-09-04 00:13:18 | 41.58916 | 8.88554 | 110° | 24km/h | 17489m | 4.4m/s | 0°C | 0% | 0hPa | 0V | 00:00:00 | 00:00:00 | 00:00:00 | |
| RDZ2B | 2026-09-04 00:13:08 | 41.58946 | 8.88461 | 117° | 46km/h | 17449m | 1.6m/s | 0°C | 0% | 0hPa | 0V | 00:00:00 | 00:00:00 | 00:00:00 | |
| RDZBGO | 2026-09-04 00:12:57 | 41.58984 | 8.88382 | 133° | 35km/h | 17400m | 4.6m/s | 0°C | 0% | 0hPa | 0V | 00:00:00 | 00:00:00 | 00:00:00 | |
| RDZ2B | 2026-09-04 00:12:48 | 41.59030 | 8.88317 | 152° | 33km/h | 17364m | 4.2m/s | 0°C | 0% | 0hPa | 0V | 00:00:00 | 00:00:00 | 00:00:00 | |
| RDZBGO | 2026-09-04 00:12:37 | 41.59095 | 8.88251 | 136° | 31km/h | 17319m | 4.0m/s | 0°C | 0% | 0hPa | 0V | 00:00:00 | 00:00:00 | 00:00:00 | |
| RDZ2B | 2026-09-04 00:12:28 | 41.59147 | 8.88202 | 162° | 26km/h | 17282m | 3.6m/s | 0°C | 0% | 0hPa | 0V | 00:00:00 | 00:00:00 | 00:00:00 | |
| RDZBGO | 2026-09-04 00:12:16 | 41.59217 | 8.88136 | 169° | 29km/h | 17235m | 4.2m/s | 0°C | 0% | 0hPa | 0V | 00:00:00 | 00:00:00 | 00:00:00 | |
| RDZ2B | 2026-09-04 00:12:07 | 41.59278 | 8.88104 | 143° | 31km/h | 17197m | 4.2m/s | 0°C | 0% | 0hPa | 0V | 00:00:00 | 00:00:00 | 00:00:00 | |
| RDZBGO | 2026-09-04 00:11:55 | 41.59353 | 8.88051 | 129° | 37km/h | 17149m | 3.5m/s | 0°C | 0% | 0hPa | 0V | 00:00:00 | 00:00:00 | 00:00:00 | |
| RDZ2B | 2026-09-04 00:11:46 | 41.59414 | 8.87993 | 159° | 31km/h | 17113m | 5.6m/s | 0°C | 0% | 0hPa | 0V | 00:00:00 | 00:00:00 | 00:00:00 | |
| RDZBGO | 2026-09-04 00:11:34 | 41.59494 | 8.87902 | 144° | 27km/h | 17061m | 4.9m/s | 0°C | 0% | 0hPa | 0V | 00:00:00 | 00:00:00 | 00:00:00 | |
| RDZ2B | 2026-09-04 00:11:26 | 41.59551 | 8.87840 | 138° | 40km/h | 17027m | 5.2m/s | 0°C | 0% | 0hPa | 0V | 00:00:00 | 00:00:00 | 00:00:00 | |
| RDZBGO | 2026-09-04 00:11:14 | 41.59634 | 8.87759 | 148° | 33km/h | 16977m | 4.7m/s | 0°C | 0% | 0hPa | 0V | 00:00:00 | 00:00:00 | 00:00:00 | |
| RDZ2B | 2026-09-04 00:11:01 | 41.59744 | 8.87680 | 140° | 31km/h | 16921m | 4.9m/s | 0°C | 0% | 0hPa | 0V | 00:00:00 | 00:00:00 | 00:00:00 | |
| RDZBGO | 2026-09-04 00:10:53 | 41.59814 | 8.87636 | 156° | 47km/h | 16886m | 5.1m/s | 0°C | 0% | 0hPa | 0V | 00:00:00 | 00:00:00 | 00:00:00 | |
| RDZ2B | 2026-09-04 00:10:40 | 41.59941 | 8.87566 | 166° | 49km/h | 16832m | 3.4m/s | 0°C | 0% | 0hPa | 0V | 00:00:00 | 00:00:00 | 00:00:00 | |
| RDZBGO | 2026-09-04 00:10:32 | 41.60016 | 8.87525 | 149° | 33km/h | 16796m | 5.5m/s | 0°C | 0% | 0hPa | 0V | 00:00:00 | 00:00:00 | 00:00:00 | |
| RDZ2B | 2026-09-04 00:10:19 | 41.60150 | 8.87453 | 166° | 47km/h | 16736m | 5.2m/s | 0°C | 0% | 0hPa | 0V | 00:00:00 | 00:00:00 | 00:00:00 | |
| RDZBGO | 2026-09-04 00:10:12 | 41.60231 | 8.87407 | 160° | 55km/h | 16705m | 5.3m/s | 0°C | 0% | 0hPa | 0V | 00:00:00 | 00:00:00 | 00:00:00 | |
| RDZ2B | 2026-09-04 00:09:58 | 41.60397 | 8.87303 | 151° | 53km/h | 16646m | 4.3m/s | 0°C | 0% | 0hPa | 0V | 00:00:00 | 00:00:00 | 00:00:00 | |
| RDZBGO | 2026-09-04 00:09:51 | 41.60487 | 8.87241 | 155° | 64km/h | 16617m | 4.8m/s | 0°C | 0% | 0hPa | 0V | 00:00:00 | 00:00:00 | 00:00:00 | |
| RDZ2B | 2026-09-04 00:09:37 | 41.60676 | 8.87093 | 138° | 71km/h | 16556m | 5.4m/s | 0°C | 0% | 0hPa | 0V | 00:00:00 | 00:00:00 | 00:00:00 | |
| RDZBGO | 2026-09-04 00:09:31 | 41.60751 | 8.87017 | 134° | 71km/h | 16528m | 4.0m/s | 0°C | 0% | 0hPa | 0V | 00:00:00 | 00:00:00 | 00:00:00 | |
| RDZ2B | 2026-09-04 00:09:15 | 41.60940 | 8.86845 | 130° | 55km/h | 16459m | 6.1m/s | 0°C | 0% | 0hPa | 0V | 00:00:00 | 00:00:00 | 00:00:00 | |
| RDZBGO | 2026-09-04 00:09:11 | 41.60980 | 8.86806 | 154° | 46km/h | 16441m | 3.8m/s | 0°C | 0% | 0hPa | 0V | 00:00:00 | 00:00:00 | 00:00:00 | |
| RDZBGO | 2026-09-04 00:08:50 | 41.61175 | 8.86613 | 145° | 42km/h | 16348m | 4.4m/s | 0°C | 0% | 0hPa | 0V | 00:00:00 | 00:00:00 | 00:00:00 | |
| RDZ2B | 2026-09-04 00:08:30 | 41.61324 | 8.86472 | 142° | 47km/h | 16260m | 3.7m/s | 0°C | 0% | 0hPa | 0V | 00:00:00 | 00:00:00 | 00:00:00 | |
| RDZBGO | 2026-09-04 00:08:10 | 41.61461 | 8.86376 | 165° | 20km/h | 16171m | 4.1m/s | 0°C | 0% | 0hPa | 0V | 00:00:00 | 00:00:00 | 00:00:00 | |
| RDZ2B | 2026-09-04 00:08:07 | 41.61481 | 8.86365 | 157° | 46km/h | 16158m | 3.7m/s | 0°C | 0% | 0hPa | 0V | 00:00:00 | 00:00:00 | 00:00:00 | |
| RDZBGO | 2026-09-04 00:07:49 | 41.61641 | 8.86289 | 172° | 49km/h | 16085m | 4.5m/s | 0°C | 0% | 0hPa | 0V | 00:00:00 | 00:00:00 | 00:00:00 | |
| RDZ2B | 2026-09-04 00:07:42 | 41.61706 | 8.86252 | 160° | 51km/h | 16056m | 4.4m/s | 0°C | 0% | 0hPa | 0V | 00:00:00 | 00:00:00 | 00:00:00 | |
| RDZBGO | 2026-09-04 00:07:28 | 41.61851 | 8.86148 | 153° | 46km/h | 16000m | 4.3m/s | 0°C | 0% | 0hPa | 0V | 00:00:00 | 00:00:00 | 00:00:00 | |
| RDZ2B | 2026-09-04 00:07:20 | 41.61937 | 8.86074 | 135° | 57km/h | 15967m | 3.9m/s | 0°C | 0% | 0hPa | 0V | 00:00:00 | 00:00:00 | 00:00:00 | |
| RDZBGO | 2026-09-04 00:07:08 | 41.62067 | 8.85945 | 127° | 46km/h | 15919m | 3.9m/s | 0°C | 0% | 0hPa | 0V | 00:00:00 | 00:00:00 | 00:00:00 | |
| RDZ2B | 2026-09-04 00:07:00 | 41.62153 | 8.85842 | 145° | 64km/h | 15884m | 4.1m/s | 0°C | 0% | 0hPa | 0V | 00:00:00 | 00:00:00 | 00:00:00 | |
| RDZBGO | 2026-09-04 00:06:47 | 41.62295 | 8.85648 | 132° | 71km/h | 15832m | 3.2m/s | 0°C | 0% | 0hPa | 0V | 00:00:00 | 00:00:00 | 00:00:00 | |
| RDZ2B | 2026-09-04 00:06:40 | 41.62369 | 8.85542 | 135° | 55km/h | 15801m | 4.4m/s | 0°C | 0% | 0hPa | 0V | 00:00:00 | 00:00:00 | 00:00:00 | |
| RDZBGO | 2026-09-04 00:06:26 | 41.62504 | 8.85344 | 136° | 71km/h | 15742m | 3.5m/s | 0°C | 0% | 0hPa | 0V | 00:00:00 | 00:00:00 | 00:00:00 | |
| RDZ2B | 2026-09-04 00:06:19 | 41.62564 | 8.85246 | 135° | 51km/h | 15713m | 3.9m/s | 0°C | 0% | 0hPa | 0V | 00:00:00 | 00:00:00 | 00:00:00 | |
| RDZBGO | 2026-09-04 00:06:05 | 41.62673 | 8.85082 | 123° | 40km/h | 15655m | 2.8m/s | 0°C | 0% | 0hPa | 0V | 00:00:00 | 00:00:00 | 00:00:00 | |
| RDZ2B | 2026-09-04 00:05:57 | 41.62732 | 8.84984 | 128° | 46km/h | 15621m | 3.2m/s | 0°C | 0% | 0hPa | 0V | 00:00:00 | 00:00:00 | 00:00:00 | |
| RDZBGO | 2026-09-04 00:05:44 | 41.62802 | 8.84837 | 92° | 37km/h | 15567m | 5.6m/s | 0°C | 0% | 0hPa | 0V | 00:00:00 | 00:00:00 | 00:00:00 | |
| RDZ2B | 2026-09-04 00:05:25 | 41.62898 | 8.84673 | 134° | 24km/h | 15484m | 4.8m/s | 0°C | 0% | 0hPa | 0V | 00:00:00 | 00:00:00 | 00:00:00 | |
| RDZBGO | 2026-09-04 00:05:22 | 41.62920 | 8.84653 | 144° | 38km/h | 15472m | 4.0m/s | 0°C | 0% | 0hPa | 0V | 00:00:00 | 00:00:00 | 00:00:00 | |
| RDZ2B | 2026-09-04 00:05:04 | 41.63045 | 8.84534 | 157° | 40km/h | 15396m | 4.7m/s | 0°C | 0% | 0hPa | 0V | 00:00:00 | 00:00:00 | 00:00:00 | |
| RDZBGO | 2026-09-04 00:05:01 | 41.63067 | 8.84512 | 151° | 35km/h | 15383m | 4.6m/s | 0°C | 0% | 0hPa | 0V | 00:00:00 | 00:00:00 | 00:00:00 | |
| RDZ2B | 2026-09-04 00:04:43 | 41.63228 | 8.84426 | 180° | 46km/h | 15303m | 3.7m/s | 0°C | 0% | 0hPa | 0V | 00:00:00 | 00:00:00 | 00:00:00 | |
| RDZBGO | 2026-09-04 00:04:40 | 41.63256 | 8.84412 | 148° | 37km/h | 15291m | 3.2m/s | 0°C | 0% | 0hPa | 0V | 00:00:00 | 00:00:00 | 00:00:00 | |
| RDZ2B | 2026-09-04 00:04:23 | 41.63441 | 8.84357 | 168° | 55km/h | 15224m | 3.8m/s | 0°C | 0% | 0hPa | 0V | 00:00:00 | 00:00:00 | 00:00:00 | |
| RDZBGO | 2026-09-04 00:04:19 | 41.63474 | 8.84347 | 163° | 46km/h | 15211m | 4.1m/s | 0°C | 0% | 0hPa | 0V | 00:00:00 | 00:00:00 | 00:00:00 | |
| RDZ2B | 2026-09-04 00:04:02 | 41.63680 | 8.84268 | 155° | 44km/h | 15140m | 5.5m/s | 0°C | 0% | 0hPa | 0V | 00:00:00 | 00:00:00 | 00:00:00 | |
| RDZBGO | 2026-09-04 00:03:58 | 41.63719 | 8.84243 | 168° | 57km/h | 15124m | 4.5m/s | 0°C | 0% | 0hPa | 0V | 00:00:00 | 00:00:00 | 00:00:00 | |
| RDZ2B | 2026-09-04 00:03:41 | 41.63923 | 8.84168 | 163° | 49km/h | 15047m | 4.5m/s | 0°C | 0% | 0hPa | 0V | 00:00:00 | 00:00:00 | 00:00:00 | |
| RDZBGO | 2026-09-04 00:03:39 | 41.63943 | 8.84158 | 161° | 42km/h | 15039m | 3.8m/s | 0°C | 0% | 0hPa | 0V | 00:00:00 | 00:00:00 | 00:00:00 | |
| RDZ2B | 2026-09-04 00:03:18 | 41.64182 | 8.84095 | 169° | 57km/h | 14953m | 4.2m/s | 0°C | 0% | 0hPa | 0V | 00:00:00 | 00:00:00 | 00:00:00 | |
| RDZBGO | 2026-09-04 00:03:17 | 41.64209 | 8.84087 | 167° | 49km/h | 14944m | 4.5m/s | 0°C | 0% | 0hPa | 0V | 00:00:00 | 00:00:00 | 00:00:00 | |
| RDZBGO | 2026-09-04 00:02:12 | 41.65349 | 8.83598 | 172° | 62km/h | 14615m | 2.8m/s | 0°C | 0% | 0hPa | 0V | 00:00:00 | 00:00:00 | 00:00:00 | |
| RDZ2B | 2026-09-04 00:02:10 | 41.65378 | 8.83580 | 140° | 60km/h | 14606m | 4.2m/s | 0°C | 0% | 0hPa | 0V | 00:00:00 | 00:00:00 | 00:00:00 | |
| RDZBGO | 2026-09-04 00:01:41 | 41.65615 | 8.83427 | 151° | 64km/h | 14528m | 3.2m/s | 0°C | 0% | 0hPa | 0V | 00:00:00 | 00:00:00 | 00:00:00 | |
| RDZ2B | 2026-09-04 00:01:38 | 41.65650 | 8.83406 | 172° | 47km/h | 14515m | 3.2m/s | 0°C | 0% | 0hPa | 0V | 00:00:00 | 00:00:00 | 00:00:00 | |
| IW2NTF | 2026-09-04 00:01:18 | 41.65876 | 8.83263 | 150° | 53km/h | 14433m | 3.5m/s | 0°C | 0% | 0hPa | 0V | 00:00:00 | 00:00:00 | 00:00:00 | |
| RDZBGO | 2026-09-04 00:01:17 | 41.65844 | 8.83289 | 158° | 49km/h | 14445m | 4.0m/s | 0°C | 0% | 0hPa | 0V | 00:00:00 | 00:00:00 | 00:00:00 | |
| RDZ2B | 2026-09-04 00:01:13 | 41.65875 | 8.83263 | 151° | 53km/h | 14433m | 3.6m/s | 0°C | 0% | 0hPa | 0V | 00:00:00 | 00:00:00 | 00:00:00 | |
| RDZBGO | 2026-09-04 00:00:53 | 41.66053 | 8.83165 | 168° | 49km/h | 14361m | 6.7m/s | 0°C | 0% | 0hPa | 0V | 00:00:00 | 00:00:00 | 00:00:00 | |
| RDZ2B | 2026-09-04 00:00:51 | 41.66075 | 8.83159 | 161° | 37km/h | 14352m | 4.7m/s | 0°C | 0% | 0hPa | 0V | 00:00:00 | 00:00:00 | 00:00:00 | |
| IW2NTF | 2026-09-04 00:00:49 | 41.66154 | 8.83127 | 150° | 47km/h | 14319m | 3.8m/s | 0°C | 0% | 0hPa | 0V | 00:00:00 | 00:00:00 | 00:00:00 | |
| RDZ2B | 2026-09-04 00:00:36 | 41.66283 | 8.83097 | 163° | 47km/h | 14269m | 3.5m/s | 0°C | 0% | 0hPa | 0V | 00:00:00 | 00:00:00 | 00:00:00 | |
| RDZBGO | 2026-09-04 00:00:13 | 41.66489 | 8.83075 | 179° | 46km/h | 14194m | 5.1m/s | 0°C | 0% | 0hPa | 0V | 00:00:00 | 00:00:00 | 00:00:00 | |
| RDZ2B | 2026-09-04 00:00:09 | 41.66557 | 8.83075 | 181° | 55km/h | 14172m | 4.9m/s | 0°C | 0% | 0hPa | 0V | 00:00:00 | 00:00:00 | 00:00:00 | |
| RDZBGO | 2026-09-03 23:59:52 | 41.66793 | 8.83051 | 163° | 57km/h | 14106m | 3.4m/s | 0°C | 0% | 0hPa | 0V | 00:00:00 | 00:00:00 | 00:00:00 | |
| RDZ2B | 2026-09-03 23:59:47 | 41.66869 | 8.83036 | 158° | 44km/h | 14085m | 4.5m/s | 0°C | 0% | 0hPa | 0V | 00:00:00 | 00:00:00 | 00:00:00 | |
| RDZBGO | 2026-09-03 23:59:32 | 41.67094 | 8.82976 | 177° | 66km/h | 14021m | 3.2m/s | 0°C | 0% | 0hPa | 0V | 00:00:00 | 00:00:00 | 00:00:00 | |
| RDZ2B | 2026-09-03 23:59:25 | 41.67190 | 8.82950 | 159° | 68km/h | 13990m | 3.7m/s | 0°C | 0% | 0hPa | 0V | 00:00:00 | 00:00:00 | 00:00:00 | |
| RDZBGO | 2026-09-03 23:59:11 | 41.67414 | 8.82910 | 176° | 84km/h | 13922m | 0.7m/s | 0°C | 0% | 0hPa | 0V | 00:00:00 | 00:00:00 | 00:00:00 | |
| RDZ2B | 2026-09-03 23:59:02 | 41.67573 | 8.82897 | 153° | 62km/h | 13867m | 4.0m/s | 0°C | 0% | 0hPa | 0V | 00:00:00 | 00:00:00 | 00:00:00 | |
| RDZBGO | 2026-09-03 23:58:29 | 41.68200 | 8.82759 | 182° | 80km/h | 13687m | 6.1m/s | 0°C | 0% | 0hPa | 0V | 00:00:00 | 00:00:00 | 00:00:00 | |
| RDZBGO | 2026-09-03 23:58:08 | 41.68605 | 8.82683 | 183° | 62km/h | 13562m | 6.1m/s | 0°C | 0% | 0hPa | 0V | 00:00:00 | 00:00:00 | 00:00:00 | |
| RDZ2B | 2026-09-03 23:57:59 | 41.68761 | 8.82694 | 178° | 68km/h | 13521m | 4.9m/s | 0°C | 0% | 0hPa | 0V | 00:00:00 | 00:00:00 | 00:00:00 | |
| RDZBGO | 2026-09-03 23:57:48 | 41.68971 | 8.82713 | 190° | 75km/h | 13477m | 3.8m/s | 0°C | 0% | 0hPa | 0V | 00:00:00 | 00:00:00 | 00:00:00 | |
| RDZBGO | 2026-09-03 23:57:27 | 41.69347 | 8.82724 | 183° | 66km/h | 13384m | 5.0m/s | 0°C | 0% | 0hPa | 0V | 00:00:00 | 00:00:00 | 00:00:00 | |
| RDZ2B | 2026-09-03 23:57:20 | 41.69467 | 8.82731 | 184° | 66km/h | 13355m | 4.9m/s | 0°C | 0% | 0hPa | 0V | 00:00:00 | 00:00:00 | 00:00:00 | |
| RDZBGO | 2026-09-03 23:57:06 | 41.69709 | 8.82750 | 186° | 69km/h | 13298m | 3.7m/s | 0°C | 0% | 0hPa | 0V | 00:00:00 | 00:00:00 | 00:00:00 | |
| RDZ2B | 2026-09-03 23:56:59 | 41.69831 | 8.82750 | 181° | 73km/h | 13269m | 3.5m/s | 0°C | 0% | 0hPa | 0V | 00:00:00 | 00:00:00 | 00:00:00 | |
| RDZBGO | 2026-09-03 23:56:46 | 41.70052 | 8.82759 | 186° | 55km/h | 13213m | 2.9m/s | 0°C | 0% | 0hPa | 0V | 00:00:00 | 00:00:00 | 00:00:00 | |
| RDZBGO | 2026-09-03 23:56:25 | 41.70399 | 8.82762 | 187° | 69km/h | 13123m | 3.6m/s | 0°C | 0% | 0hPa | 0V | 00:00:00 | 00:00:00 | 00:00:00 | |
| RDZ2B | 2026-09-03 23:56:20 | 41.70478 | 8.82768 | 181° | 62km/h | 13102m | 4.3m/s | 0°C | 0% | 0hPa | 0V | 00:00:00 | 00:00:00 | 00:00:00 | |
| RDZBGO | 2026-09-03 23:56:04 | 41.70744 | 8.82772 | 170° | 64km/h | 13035m | 3.3m/s | 0°C | 0% | 0hPa | 0V | 00:00:00 | 00:00:00 | 00:00:00 | |
| RDZBGO | 2026-09-03 23:55:44 | 41.71074 | 8.82757 | 173° | 71km/h | 12953m | 5.0m/s | 0°C | 0% | 0hPa | 0V | 00:00:00 | 00:00:00 | 00:00:00 | |
| RDZ2B | 2026-09-03 23:55:32 | 41.71273 | 8.82740 | 171° | 80km/h | 12903m | 2.9m/s | 0°C | 0% | 0hPa | 0V | 00:00:00 | 00:00:00 | 00:00:00 | |
| RDZBGO | 2026-09-03 23:55:23 | 41.71419 | 8.82725 | 184° | 60km/h | 12868m | 3.8m/s | 0°C | 0% | 0hPa | 0V | 00:00:00 | 00:00:00 | 00:00:00 | |
| RDZ2B | 2026-09-03 23:55:02 | 41.71763 | 8.82703 | 167° | 73km/h | 12783m | 5.2m/s | 0°C | 0% | 0hPa | 0V | 00:00:00 | 00:00:00 | 00:00:00 | |
| RDZBGO | 2026-09-03 23:54:40 | 41.72133 | 8.82656 | 173° | 64km/h | 12686m | 4.8m/s | 0°C | 0% | 0hPa | 0V | 00:00:00 | 00:00:00 | 00:00:00 | |
| RDZ2B | 2026-09-03 23:54:39 | 41.72149 | 8.82655 | 186° | 68km/h | 12682m | 4.3m/s | 0°C | 0% | 0hPa | 0V | 00:00:00 | 00:00:00 | 00:00:00 | |
| RDZ2B | 2026-09-03 23:54:18 | 41.72491 | 8.82619 | 175° | 60km/h | 12595m | 5.0m/s | 0°C | 0% | 0hPa | 0V | 00:00:00 | 00:00:00 | 00:00:00 | |
| RDZBGO | 2026-09-03 23:54:17 | 41.72508 | 8.82617 | 172° | 75km/h | 12590m | 4.3m/s | 0°C | 0% | 0hPa | 0V | 00:00:00 | 00:00:00 | 00:00:00 | |
| RDZ2B | 2026-09-03 23:53:54 | 41.72874 | 8.82578 | 167° | 64km/h | 12488m | 4.0m/s | 0°C | 0% | 0hPa | 0V | 00:00:00 | 00:00:00 | 00:00:00 | |
| RDZBGO | 2026-09-03 23:53:33 | 41.73191 | 8.82553 | 178° | 42km/h | 12389m | 2.7m/s | 0°C | 0% | 0hPa | 0V | 00:00:00 | 00:00:00 | 00:00:00 | |
| RDZ2B | 2026-09-03 23:53:18 | 41.73419 | 8.82530 | 195° | 55km/h | 12314m | 13.9m/s | 0°C | 0% | 0hPa | 0V | 00:00:00 | 00:00:00 | 00:00:00 | |
| RDZBGO | 2026-09-03 23:53:09 | 41.73557 | 8.82523 | 190° | 62km/h | 12259m | 8.1m/s | 0°C | 0% | 0hPa | 0V | 00:00:00 | 00:00:00 | 00:00:00 | |
| RDZBGO | 2026-09-03 23:52:49 | 41.73854 | 8.82516 | 189° | 55km/h | 12149m | 4.3m/s | 0°C | 0% | 0hPa | 0V | 00:00:00 | 00:00:00 | 00:00:00 | |
| RDZ2B | 2026-09-03 23:52:43 | 41.73941 | 8.82508 | 181° | 40km/h | 12121m | 2.5m/s | 0°C | 0% | 0hPa | 0V | 00:00:00 | 00:00:00 | 00:00:00 | |
| RDZBGO | 2026-09-03 23:52:25 | 41.74203 | 8.82491 | 177° | 71km/h | 12023m | 3.0m/s | 0°C | 0% | 0hPa | 0V | 00:00:00 | 00:00:00 | 00:00:00 | |
| RDZBGO | 2026-09-03 23:52:03 | 41.74516 | 8.82464 | 181° | 64km/h | 11917m | 8.4m/s | 0°C | 0% | 0hPa | 0V | 00:00:00 | 00:00:00 | 00:00:00 | |
| RDZBGO | 2026-09-03 23:51:42 | 41.74819 | 8.82434 | 187° | 57km/h | 11795m | 4.5m/s | 0°C | 0% | 0hPa | 0V | 00:00:00 | 00:00:00 | 00:00:00 | |
| RDZBGO | 2026-09-03 23:51:22 | 41.75115 | 8.82409 | 168° | 44km/h | 11693m | 2.0m/s | 0°C | 0% | 0hPa | 0V | 00:00:00 | 00:00:00 | 00:00:00 | |
| RDZBGO | 2026-09-03 23:51:01 | 41.75420 | 8.82387 | 179° | 80km/h | 11592m | 4.8m/s | 0°C | 0% | 0hPa | 0V | 00:00:00 | 00:00:00 | 00:00:00 | |
| RDZ2B | 2026-09-03 23:50:46 | 41.75643 | 8.82377 | 173° | 60km/h | 11509m | 9.0m/s | 0°C | 0% | 0hPa | 0V | 00:00:00 | 00:00:00 | 00:00:00 | |
| RDZBGO | 2026-09-03 23:50:39 | 41.75742 | 8.82362 | 179° | 73km/h | 11470m | 8.7m/s | 0°C | 0% | 0hPa | 0V | 00:00:00 | 00:00:00 | 00:00:00 | |
| RDZ2B | 2026-09-03 23:50:25 | 41.75945 | 8.82345 | 177° | 53km/h | 11394m | 5.2m/s | 0°C | 0% | 0hPa | 0V | 00:00:00 | 00:00:00 | 00:00:00 | |
| RDZBGO | 2026-09-03 23:50:17 | 41.76064 | 8.82344 | 182° | 75km/h | 11351m | 0.2m/s | 0°C | 0% | 0hPa | 0V | 00:00:00 | 00:00:00 | 00:00:00 | |
| RDZBGO | 2026-09-03 23:49:56 | 41.76358 | 8.82324 | 178° | 60km/h | 11245m | 5.4m/s | 0°C | 0% | 0hPa | 0V | 00:00:00 | 00:00:00 | 00:00:00 | |
| RDZ2B | 2026-09-03 23:49:50 | 41.76439 | 8.82319 | 175° | 75km/h | 11211m | 4.0m/s | 0°C | 0% | 0hPa | 0V | 00:00:00 | 00:00:00 | 00:00:00 | |
| RDZBGO | 2026-09-03 23:49:35 | 41.76630 | 8.82306 | 161° | 53km/h | 11121m | 4.3m/s | 0°C | 0% | 0hPa | 0V | 00:00:00 | 00:00:00 | 00:00:00 | |
| RDZBGO | 2026-09-03 23:49:14 | 41.76895 | 8.82276 | 169° | 55km/h | 11033m | 5.4m/s | 0°C | 0% | 0hPa | 0V | 00:00:00 | 00:00:00 | 00:00:00 | |
| RDZ2B | 2026-09-03 23:49:02 | 41.77046 | 8.82263 | 165° | 49km/h | 10981m | 2.2m/s | 0°C | 0% | 0hPa | 0V | 00:00:00 | 00:00:00 | 00:00:00 | |
| RDZBGO | 2026-09-03 23:48:54 | 41.77149 | 8.82249 | 182° | 66km/h | 10942m | 3.1m/s | 0°C | 0% | 0hPa | 0V | 00:00:00 | 00:00:00 | 00:00:00 | |
| RDZ2B | 2026-09-03 23:48:36 | 41.77383 | 8.82238 | 178° | 71km/h | 10845m | 5.0m/s | 0°C | 0% | 0hPa | 0V | 00:00:00 | 00:00:00 | 00:00:00 | |
| RDZBGO | 2026-09-03 23:48:34 | 41.77410 | 8.82234 | 159° | 40km/h | 10836m | 3.3m/s | 0°C | 0% | 0hPa | 0V | 00:00:00 | 00:00:00 | 00:00:00 | |
| RDZBGO | 2026-09-03 23:48:12 | 41.77678 | 8.82214 | 161° | 58km/h | 10744m | 4.8m/s | 0°C | 0% | 0hPa | 0V | 00:00:00 | 00:00:00 | 00:00:00 | |
| RDZBGO | 2026-09-03 23:47:49 | 41.77950 | 8.82178 | 196° | 37km/h | 10652m | 3.0m/s | 0°C | 0% | 0hPa | 0V | 00:00:00 | 00:00:00 | 00:00:00 | |
| RDZBGO | 2026-09-03 23:47:29 | 41.78185 | 8.82150 | 197° | 49km/h | 10565m | 0.9m/s | 0°C | 0% | 0hPa | 0V | 00:00:00 | 00:00:00 | 00:00:00 | |
| RDZBGO | 2026-09-03 23:47:08 | 41.78433 | 8.82101 | 177° | 66km/h | 10458m | 9.1m/s | 0°C | 0% | 0hPa | 0V | 00:00:00 | 00:00:00 | 00:00:00 | |
| RDZ2B | 2026-09-03 23:46:59 | 41.78539 | 8.82087 | 179° | 49km/h | 10415m | 3.5m/s | 0°C | 0% | 0hPa | 0V | 00:00:00 | 00:00:00 | 00:00:00 | |
| RDZBGO | 2026-09-03 23:46:48 | 41.78655 | 8.82053 | 160° | 55km/h | 10364m | 4.7m/s | 0°C | 0% | 0hPa | 0V | 00:00:00 | 00:00:00 | 00:00:00 | |
| RDZBGO | 2026-09-03 23:46:27 | 41.78901 | 8.81993 | 176° | 37km/h | 10260m | 5.1m/s | 0°C | 0% | 0hPa | 0V | 00:00:00 | 00:00:00 | 00:00:00 | |
| RDZ2B | 2026-09-03 23:46:04 | 41.79161 | 8.81919 | 168° | 35km/h | 10162m | 4.0m/s | 0°C | 0% | 0hPa | 0V | 00:00:00 | 00:00:00 | 00:00:00 | |
| RDZBGO | 2026-09-03 23:45:43 | 41.79382 | 8.81877 | 176° | 57km/h | 10053m | 4.3m/s | 0°C | 0% | 0hPa | 0V | 00:00:00 | 00:00:00 | 00:00:00 | |
| RDZ2B | 2026-09-03 23:45:27 | 41.79544 | 8.81850 | 162° | 37km/h | 9975m | 4.3m/s | 0°C | 0% | 0hPa | 0V | 00:00:00 | 00:00:00 | 00:00:00 | |
| RDZBGO | 2026-09-03 23:45:09 | 41.79744 | 8.81829 | 197° | 42km/h | 9885m | 3.9m/s | 0°C | 0% | 0hPa | 0V | 00:00:00 | 00:00:00 | 00:00:00 | |
| RDZ2B | 2026-09-03 23:45:06 | 41.79773 | 8.81822 | 173° | 47km/h | 9869m | 4.9m/s | 0°C | 0% | 0hPa | 0V | 00:00:00 | 00:00:00 | 00:00:00 | |
| RDZBGO | 2026-09-03 23:44:49 | 41.79947 | 8.81796 | 162° | 40km/h | 9779m | 5.0m/s | 0°C | 0% | 0hPa | 0V | 00:00:00 | 00:00:00 | 00:00:00 | |
| RDZ2B | 2026-09-03 23:44:40 | 41.80032 | 8.81776 | 172° | 57km/h | 9732m | 4.9m/s | 0°C | 0% | 0hPa | 0V | 00:00:00 | 00:00:00 | 00:00:00 | |
| RDZBGO | 2026-09-03 23:44:22 | 41.80209 | 8.81752 | 178° | 57km/h | 9649m | 4.1m/s | 0°C | 0% | 0hPa | 0V | 00:00:00 | 00:00:00 | 00:00:00 | |
| RDZ2B | 2026-09-03 23:44:09 | 41.80339 | 8.81717 | 164° | 35km/h | 9580m | 4.5m/s | 0°C | 0% | 0hPa | 0V | 00:00:00 | 00:00:00 | 00:00:00 | |
| RDZBGO | 2026-09-03 23:43:57 | 41.80466 | 8.81691 | 172° | 31km/h | 9513m | 6.3m/s | 0°C | 0% | 0hPa | 0V | 00:00:00 | 00:00:00 | 00:00:00 | |
| RDZ2B | 2026-09-03 23:43:41 | 41.80630 | 8.81639 | 174° | 44km/h | 9434m | 5.0m/s | 0°C | 0% | 0hPa | 0V | 00:00:00 | 00:00:00 | 00:00:00 | |
| RDZBGO | 2026-09-03 23:43:32 | 41.80735 | 8.81601 | 179° | 37km/h | 9390m | 0.9m/s | 0°C | 0% | 0hPa | 0V | 00:00:00 | 00:00:00 | 00:00:00 | |
| RDZ2B | 2026-09-03 23:43:20 | 41.80874 | 8.81567 | 153° | 62km/h | 9325m | 6.0m/s | 0°C | 0% | 0hPa | 0V | 00:00:00 | 00:00:00 | 00:00:00 | |
| RDZBGO | 2026-09-03 23:43:09 | 41.80994 | 8.81533 | 157° | 53km/h | 9278m | 4.8m/s | 0°C | 0% | 0hPa | 0V | 00:00:00 | 00:00:00 | 00:00:00 | |
| RDZ2B | 2026-09-03 23:42:58 | 41.81117 | 8.81497 | 193° | 49km/h | 9227m | 6.8m/s | 0°C | 0% | 0hPa | 0V | 00:00:00 | 00:00:00 | 00:00:00 | |
| RDZBGO | 2026-09-03 23:42:49 | 41.81221 | 8.81464 | 164° | 55km/h | 9183m | 3.0m/s | 0°C | 0% | 0hPa | 0V | 00:00:00 | 00:00:00 | 00:00:00 | |
| RDZ2B | 2026-09-03 23:42:38 | 41.81343 | 8.81410 | 151° | 40km/h | 9133m | 1.2m/s | 0°C | 0% | 0hPa | 0V | 00:00:00 | 00:00:00 | 00:00:00 | |
| RDZBGO | 2026-09-03 23:42:20 | 41.81550 | 8.81336 | 174° | 58km/h | 9039m | 6.2m/s | 0°C | 0% | 0hPa | 0V | 00:00:00 | 00:00:00 | 00:00:00 | |
| RDZ2B | 2026-09-03 23:42:17 | 41.81590 | 8.81326 | 177° | 51km/h | 9026m | 2.3m/s | 0°C | 0% | 0hPa | 0V | 00:00:00 | 00:00:00 | 00:00:00 | |
| RDZBGO | 2026-09-03 23:41:55 | 41.81838 | 8.81235 | 177° | 44km/h | 8903m | 5.9m/s | 0°C | 0% | 0hPa | 0V | 00:00:00 | 00:00:00 | 00:00:00 | |
| RDZ2B | 2026-09-03 23:41:49 | 41.81914 | 8.81213 | 165° | 58km/h | 8875m | 3.3m/s | 0°C | 0% | 0hPa | 0V | 00:00:00 | 00:00:00 | 00:00:00 | |
| RDZBGO | 2026-09-03 23:41:34 | 41.82084 | 8.81176 | 178° | 49km/h | 8794m | 3.6m/s | 0°C | 0% | 0hPa | 0V | 00:00:00 | 00:00:00 | 00:00:00 | |
| RDZ2B | 2026-09-03 23:41:25 | 41.82190 | 8.81155 | 159° | 49km/h | 8752m | 3.9m/s | 0°C | 0% | 0hPa | 0V | 00:00:00 | 00:00:00 | 00:00:00 | |
| RDZBGO | 2026-09-03 23:41:13 | 41.82342 | 8.81129 | 190° | 44km/h | 8694m | 6.9m/s | 0°C | 0% | 0hPa | 0V | 00:00:00 | 00:00:00 | 00:00:00 | |
| RDZ2B | 2026-09-03 23:41:05 | 41.82446 | 8.81111 | 186° | 51km/h | 8649m | 7.0m/s | 0°C | 0% | 0hPa | 0V | 00:00:00 | 00:00:00 | 00:00:00 | |
| RDZBGO | 2026-09-03 23:40:52 | 41.82603 | 8.81059 | 166° | 58km/h | 8587m | 8.0m/s | 0°C | 0% | 0hPa | 0V | 00:00:00 | 00:00:00 | 00:00:00 | |
| RDZ2B | 2026-09-03 23:40:44 | 41.82698 | 8.81022 | 157° | 57km/h | 8544m | 4.6m/s | 0°C | 0% | 0hPa | 0V | 00:00:00 | 00:00:00 | 00:00:00 | |
| RDZBGO | 2026-09-03 23:40:31 | 41.82842 | 8.80976 | 159° | 37km/h | 8474m | 6.8m/s | 0°C | 0% | 0hPa | 0V | 00:00:00 | 00:00:00 | 00:00:00 | |
| RDZ2B | 2026-09-03 23:40:23 | 41.82935 | 8.80951 | 159° | 60km/h | 8427m | 8.3m/s | 0°C | 0% | 0hPa | 0V | 00:00:00 | 00:00:00 | 00:00:00 | |
| RDZBGO | 2026-09-03 23:40:11 | 41.83065 | 8.80907 | 170° | 42km/h | 8367m | 4.4m/s | 0°C | 0% | 0hPa | 0V | 00:00:00 | 00:00:00 | 00:00:00 | |
| RDZ2B | 2026-09-03 23:40:02 | 41.83173 | 8.80866 | 159° | 57km/h | 8321m | 4.4m/s | 0°C | 0% | 0hPa | 0V | 00:00:00 | 00:00:00 | 00:00:00 | |
| RDZBGO | 2026-09-03 23:39:49 | 41.83324 | 8.80811 | 141° | 46km/h | 8265m | 6.4m/s | 0°C | 0% | 0hPa | 0V | 00:00:00 | 00:00:00 | 00:00:00 | |
| RDZ2B | 2026-09-03 23:39:41 | 41.83405 | 8.80762 | 172° | 42km/h | 8228m | 2.2m/s | 0°C | 0% | 0hPa | 0V | 00:00:00 | 00:00:00 | 00:00:00 | |
| RDZBGO | 2026-09-03 23:39:28 | 41.83569 | 8.80695 | 154° | 37km/h | 8165m | 8.4m/s | 0°C | 0% | 0hPa | 0V | 00:00:00 | 00:00:00 | 00:00:00 | |
| RDZ2B | 2026-09-03 23:39:19 | 41.83671 | 8.80645 | 162° | 38km/h | 8119m | 5.3m/s | 0°C | 0% | 0hPa | 0V | 00:00:00 | 00:00:00 | 00:00:00 | |
| RDZBGO | 2026-09-03 23:39:07 | 41.83797 | 8.80569 | 153° | 57km/h | 8045m | 7.3m/s | 0°C | 0% | 0hPa | 0V | 00:00:00 | 00:00:00 | 00:00:00 | |
| RDZ2B | 2026-09-03 23:39:00 | 41.83884 | 8.80507 | 144° | 49km/h | 7998m | 5.3m/s | 0°C | 0% | 0hPa | 0V | 00:00:00 | 00:00:00 | 00:00:00 | |
| RDZBGO | 2026-09-03 23:38:46 | 41.84022 | 8.80406 | 166° | 47km/h | 7944m | 3.7m/s | 0°C | 0% | 0hPa | 0V | 00:00:00 | 00:00:00 | 00:00:00 | |
| RDZ2B | 2026-09-03 23:38:36 | 41.84122 | 8.80324 | 153° | 66km/h | 7903m | 1.0m/s | 0°C | 0% | 0hPa | 0V | 00:00:00 | 00:00:00 | 00:00:00 | |
| RDZBGO | 2026-09-03 23:38:25 | 41.84240 | 8.80227 | 148° | 47km/h | 7844m | 6.6m/s | 0°C | 0% | 0hPa | 0V | 00:00:00 | 00:00:00 | 00:00:00 | |
| RDZ2B | 2026-09-03 23:38:15 | 41.84332 | 8.80144 | 138° | 53km/h | 7796m | 7.0m/s | 0°C | 0% | 0hPa | 0V | 00:00:00 | 00:00:00 | 00:00:00 | |
| RDZBGO | 2026-09-03 23:38:03 | 41.84455 | 8.80053 | 169° | 47km/h | 7733m | 3.8m/s | 0°C | 0% | 0hPa | 0V | 00:00:00 | 00:00:00 | 00:00:00 | |
| RDZ2B | 2026-09-03 23:37:53 | 41.84551 | 8.79970 | 139° | 42km/h | 7691m | 4.8m/s | 0°C | 0% | 0hPa | 0V | 00:00:00 | 00:00:00 | 00:00:00 | |
| RDZBGO | 2026-09-03 23:37:42 | 41.84657 | 8.79883 | 139° | 47km/h | 7647m | 3.3m/s | 0°C | 0% | 0hPa | 0V | 00:00:00 | 00:00:00 | 00:00:00 | |
| RDZ2B | 2026-09-03 23:37:32 | 41.84747 | 8.79803 | 153° | 42km/h | 7605m | 5.0m/s | 0°C | 0% | 0hPa | 0V | 00:00:00 | 00:00:00 | 00:00:00 | |
| RDZBGO | 2026-09-03 23:37:21 | 41.84840 | 8.79708 | 119° | 29km/h | 7548m | 2.8m/s | 0°C | 0% | 0hPa | 0V | 00:00:00 | 00:00:00 | 00:00:00 | |
| RDZ2B | 2026-09-03 23:37:10 | 41.84938 | 8.79620 | 142° | 40km/h | 7483m | 6.9m/s | 0°C | 0% | 0hPa | 0V | 00:00:00 | 00:00:00 | 00:00:00 | |
| RDZBGO | 2026-09-03 23:36:59 | 41.85027 | 8.79527 | 147° | 35km/h | 7427m | 6.4m/s | 0°C | 0% | 0hPa | 0V | 00:00:00 | 00:00:00 | 00:00:00 | |
| RDZ2B | 2026-09-03 23:36:48 | 41.85117 | 8.79447 | 142° | 42km/h | 7365m | 5.9m/s | 0°C | 0% | 0hPa | 0V | 00:00:00 | 00:00:00 | 00:00:00 | |
| RDZ2B | 2026-09-03 23:36:07 | 41.85374 | 8.79132 | 124° | 49km/h | 7131m | 4.9m/s | 0°C | 0% | 0hPa | 0V | 00:00:00 | 00:00:00 | 00:00:00 | |
| RDZ2B | 2026-09-03 23:35:47 | 41.85519 | 8.78982 | 142° | 29km/h | 7016m | 4.0m/s | 0°C | 0% | 0hPa | 0V | 00:00:00 | 00:00:00 | 00:00:00 | |
| RDZ2B | 2026-09-03 23:35:27 | 41.85668 | 8.78862 | 153° | 44km/h | 6903m | 6.2m/s | 0°C | 0% | 0hPa | 0V | 00:00:00 | 00:00:00 | 00:00:00 |